<?xml version="1.0" encoding="UTF-8" standalone="no" ?>
<gpx xmlns="http://www.topografix.com/GPX/1/1" xmlns:xsi="http://www.w3.org/2001/XMLSchema-instance" xsi:schemaLocation="http://www.topografix.com/GPX/1/1 http://www.topografix.com/GPX/1/1/gpx.xsd" version="1.1" creator="VisuGPX - https://www.visugpx.com">
  <metadata>
    <name>Trail Gaulois 2021</name>
  </metadata>
  <trk>
    <name><![CDATA[Rieux-Volvestre Course à pied]]></name>
    <trkseg>
      <trkpt lat="43.25918" lon="1.18805">
        <ele>226.39999389648</ele>
        <time>2021-09-19T15:45:49.000Z</time>
      </trkpt>
      <trkpt lat="43.25918" lon="1.188">
        <ele>-12.39999961853</ele>
        <time>2021-09-19T15:45:50.000Z</time>
      </trkpt>
      <trkpt lat="43.25918" lon="1.18798">
        <ele>-12.39999961853</ele>
        <time>2021-09-19T15:45:51.000Z</time>
      </trkpt>
      <trkpt lat="43.25919" lon="1.18795">
        <ele>-12.39999961853</ele>
        <time>2021-09-19T15:45:52.000Z</time>
      </trkpt>
      <trkpt lat="43.2592" lon="1.18785">
        <ele>225.19999694824</ele>
        <time>2021-09-19T15:45:54.000Z</time>
      </trkpt>
      <trkpt lat="43.25921" lon="1.1878">
        <ele>225.19999694824</ele>
        <time>2021-09-19T15:45:55.000Z</time>
      </trkpt>
      <trkpt lat="43.25928" lon="1.18748">
        <ele>226.60000610352</ele>
        <time>2021-09-19T15:46:02.000Z</time>
      </trkpt>
      <trkpt lat="43.25931" lon="1.18721">
        <ele>227</ele>
        <time>2021-09-19T15:46:08.000Z</time>
      </trkpt>
      <trkpt lat="43.25937" lon="1.18692">
        <ele>227.39999389648</ele>
        <time>2021-09-19T15:46:15.000Z</time>
      </trkpt>
      <trkpt lat="43.25938" lon="1.18664">
        <ele>228</ele>
        <time>2021-09-19T15:46:21.000Z</time>
      </trkpt>
      <trkpt lat="43.25932" lon="1.18637">
        <ele>228.19999694824</ele>
        <time>2021-09-19T15:46:27.000Z</time>
      </trkpt>
      <trkpt lat="43.25927" lon="1.18605">
        <ele>229.19999694824</ele>
        <time>2021-09-19T15:46:34.000Z</time>
      </trkpt>
      <trkpt lat="43.25929" lon="1.18575">
        <ele>228.60000610352</ele>
        <time>2021-09-19T15:46:40.000Z</time>
      </trkpt>
      <trkpt lat="43.25932" lon="1.18547">
        <ele>229.19999694824</ele>
        <time>2021-09-19T15:46:46.000Z</time>
      </trkpt>
      <trkpt lat="43.25934" lon="1.18516">
        <ele>229.60000610352</ele>
        <time>2021-09-19T15:46:53.000Z</time>
      </trkpt>
      <trkpt lat="43.25934" lon="1.18487">
        <ele>229.60000610352</ele>
        <time>2021-09-19T15:46:59.000Z</time>
      </trkpt>
      <trkpt lat="43.25936" lon="1.18457">
        <ele>229.60000610352</ele>
        <time>2021-09-19T15:47:06.000Z</time>
      </trkpt>
      <trkpt lat="43.25936" lon="1.18427">
        <ele>229.80000305176</ele>
        <time>2021-09-19T15:47:13.000Z</time>
      </trkpt>
      <trkpt lat="43.25936" lon="1.18398">
        <ele>230</ele>
        <time>2021-09-19T15:47:20.000Z</time>
      </trkpt>
      <trkpt lat="43.25933" lon="1.18366">
        <ele>230.19999694824</ele>
        <time>2021-09-19T15:47:27.000Z</time>
      </trkpt>
      <trkpt lat="43.25936" lon="1.18333">
        <ele>230.80000305176</ele>
        <time>2021-09-19T15:47:34.000Z</time>
      </trkpt>
      <trkpt lat="43.25938" lon="1.18302">
        <ele>230.80000305176</ele>
        <time>2021-09-19T15:47:40.000Z</time>
      </trkpt>
      <trkpt lat="43.2594" lon="1.18274">
        <ele>231.19999694824</ele>
        <time>2021-09-19T15:47:46.000Z</time>
      </trkpt>
      <trkpt lat="43.25942" lon="1.18245">
        <ele>230.80000305176</ele>
        <time>2021-09-19T15:47:52.000Z</time>
      </trkpt>
      <trkpt lat="43.25949" lon="1.18217">
        <ele>230.19999694824</ele>
        <time>2021-09-19T15:47:58.000Z</time>
      </trkpt>
      <trkpt lat="43.25958" lon="1.18192">
        <ele>231.19999694824</ele>
        <time>2021-09-19T15:48:04.000Z</time>
      </trkpt>
      <trkpt lat="43.25969" lon="1.18165">
        <ele>231</ele>
        <time>2021-09-19T15:48:11.000Z</time>
      </trkpt>
      <trkpt lat="43.25979" lon="1.18141">
        <ele>231.80000305176</ele>
        <time>2021-09-19T15:48:17.000Z</time>
      </trkpt>
      <trkpt lat="43.25991" lon="1.18114">
        <ele>231.39999389648</ele>
        <time>2021-09-19T15:48:24.000Z</time>
      </trkpt>
      <trkpt lat="43.26003" lon="1.18087">
        <ele>232</ele>
        <time>2021-09-19T15:48:31.000Z</time>
      </trkpt>
      <trkpt lat="43.2601" lon="1.18073">
        <ele>233</ele>
        <time>2021-09-19T15:48:35.000Z</time>
      </trkpt>
      <trkpt lat="43.26022" lon="1.18045">
        <ele>231.80000305176</ele>
        <time>2021-09-19T15:48:42.000Z</time>
      </trkpt>
      <trkpt lat="43.26035" lon="1.1802">
        <ele>232.39999389648</ele>
        <time>2021-09-19T15:48:49.000Z</time>
      </trkpt>
      <trkpt lat="43.26047" lon="1.17993">
        <ele>233.19999694824</ele>
        <time>2021-09-19T15:48:56.000Z</time>
      </trkpt>
      <trkpt lat="43.26059" lon="1.17967">
        <ele>233.60000610352</ele>
        <time>2021-09-19T15:49:03.000Z</time>
      </trkpt>
      <trkpt lat="43.26071" lon="1.17943">
        <ele>234.19999694824</ele>
        <time>2021-09-19T15:49:09.000Z</time>
      </trkpt>
      <trkpt lat="43.26083" lon="1.17919">
        <ele>235</ele>
        <time>2021-09-19T15:49:16.000Z</time>
      </trkpt>
      <trkpt lat="43.26094" lon="1.17893">
        <ele>234.80000305176</ele>
        <time>2021-09-19T15:49:23.000Z</time>
      </trkpt>
      <trkpt lat="43.26102" lon="1.17877">
        <ele>235.80000305176</ele>
        <time>2021-09-19T15:49:27.000Z</time>
      </trkpt>
      <trkpt lat="43.26112" lon="1.17853">
        <ele>236.60000610352</ele>
        <time>2021-09-19T15:49:33.000Z</time>
      </trkpt>
      <trkpt lat="43.2612" lon="1.17828">
        <ele>238.19999694824</ele>
        <time>2021-09-19T15:49:39.000Z</time>
      </trkpt>
      <trkpt lat="43.26127" lon="1.17801">
        <ele>238.39999389648</ele>
        <time>2021-09-19T15:49:46.000Z</time>
      </trkpt>
      <trkpt lat="43.26133" lon="1.17777">
        <ele>239.39999389648</ele>
        <time>2021-09-19T15:49:53.000Z</time>
      </trkpt>
      <trkpt lat="43.26127" lon="1.17751">
        <ele>240</ele>
        <time>2021-09-19T15:49:59.000Z</time>
      </trkpt>
      <trkpt lat="43.26121" lon="1.17724">
        <ele>240.60000610352</ele>
        <time>2021-09-19T15:50:06.000Z</time>
      </trkpt>
      <trkpt lat="43.26116" lon="1.17696">
        <ele>242.39999389648</ele>
        <time>2021-09-19T15:50:13.000Z</time>
      </trkpt>
      <trkpt lat="43.26114" lon="1.17668">
        <ele>243.80000305176</ele>
        <time>2021-09-19T15:50:21.000Z</time>
      </trkpt>
      <trkpt lat="43.26109" lon="1.17659">
        <ele>243.60000610352</ele>
        <time>2021-09-19T15:50:24.000Z</time>
      </trkpt>
      <trkpt lat="43.261" lon="1.17645">
        <ele>244.60000610352</ele>
        <time>2021-09-19T15:50:29.000Z</time>
      </trkpt>
      <trkpt lat="43.26086" lon="1.1762">
        <ele>244.39999389648</ele>
        <time>2021-09-19T15:50:36.000Z</time>
      </trkpt>
      <trkpt lat="43.26073" lon="1.17595">
        <ele>245.39999389648</ele>
        <time>2021-09-19T15:50:43.000Z</time>
      </trkpt>
      <trkpt lat="43.26059" lon="1.17571">
        <ele>245.19999694824</ele>
        <time>2021-09-19T15:50:50.000Z</time>
      </trkpt>
      <trkpt lat="43.26047" lon="1.17546">
        <ele>245</ele>
        <time>2021-09-19T15:50:57.000Z</time>
      </trkpt>
      <trkpt lat="43.26034" lon="1.17522">
        <ele>244.80000305176</ele>
        <time>2021-09-19T15:51:04.000Z</time>
      </trkpt>
      <trkpt lat="43.2602" lon="1.17502">
        <ele>245.19999694824</ele>
        <time>2021-09-19T15:51:10.000Z</time>
      </trkpt>
      <trkpt lat="43.26006" lon="1.17481">
        <ele>245.80000305176</ele>
        <time>2021-09-19T15:51:16.000Z</time>
      </trkpt>
      <trkpt lat="43.25993" lon="1.17461">
        <ele>246</ele>
        <time>2021-09-19T15:51:22.000Z</time>
      </trkpt>
      <trkpt lat="43.25977" lon="1.17444">
        <ele>246.60000610352</ele>
        <time>2021-09-19T15:51:28.000Z</time>
      </trkpt>
      <trkpt lat="43.25965" lon="1.1742">
        <ele>247.60000610352</ele>
        <time>2021-09-19T15:51:34.000Z</time>
      </trkpt>
      <trkpt lat="43.25955" lon="1.17396">
        <ele>248.19999694824</ele>
        <time>2021-09-19T15:51:40.000Z</time>
      </trkpt>
      <trkpt lat="43.25945" lon="1.17371">
        <ele>248.60000610352</ele>
        <time>2021-09-19T15:51:46.000Z</time>
      </trkpt>
      <trkpt lat="43.25938" lon="1.17345">
        <ele>248.80000305176</ele>
        <time>2021-09-19T15:51:52.000Z</time>
      </trkpt>
      <trkpt lat="43.25932" lon="1.1732">
        <ele>247</ele>
        <time>2021-09-19T15:51:58.000Z</time>
      </trkpt>
      <trkpt lat="43.25931" lon="1.17316">
        <ele>246.80000305176</ele>
        <time>2021-09-19T15:51:59.000Z</time>
      </trkpt>
      <trkpt lat="43.25919" lon="1.17296">
        <ele>244.39999389648</ele>
        <time>2021-09-19T15:52:07.000Z</time>
      </trkpt>
      <trkpt lat="43.25918" lon="1.17282">
        <ele>243.19999694824</ele>
        <time>2021-09-19T15:52:10.000Z</time>
      </trkpt>
      <trkpt lat="43.25915" lon="1.17259">
        <ele>239.80000305176</ele>
        <time>2021-09-19T15:52:15.000Z</time>
      </trkpt>
      <trkpt lat="43.25911" lon="1.17242">
        <ele>236.39999389648</ele>
        <time>2021-09-19T15:52:19.000Z</time>
      </trkpt>
      <trkpt lat="43.25898" lon="1.17218">
        <ele>234</ele>
        <time>2021-09-19T15:52:26.000Z</time>
      </trkpt>
      <trkpt lat="43.25886" lon="1.17207">
        <ele>230.60000610352</ele>
        <time>2021-09-19T15:52:31.000Z</time>
      </trkpt>
      <trkpt lat="43.25867" lon="1.17193">
        <ele>228.60000610352</ele>
        <time>2021-09-19T15:52:38.000Z</time>
      </trkpt>
      <trkpt lat="43.2585" lon="1.17169">
        <ele>226.19999694824</ele>
        <time>2021-09-19T15:52:47.000Z</time>
      </trkpt>
      <trkpt lat="43.25832" lon="1.17147">
        <ele>223.60000610352</ele>
        <time>2021-09-19T15:52:54.000Z</time>
      </trkpt>
      <trkpt lat="43.25814" lon="1.17127">
        <ele>224.19999694824</ele>
        <time>2021-09-19T15:53:01.000Z</time>
      </trkpt>
      <trkpt lat="43.25795" lon="1.17101">
        <ele>224.19999694824</ele>
        <time>2021-09-19T15:53:09.000Z</time>
      </trkpt>
      <trkpt lat="43.25775" lon="1.1708">
        <ele>223.80000305176</ele>
        <time>2021-09-19T15:53:17.000Z</time>
      </trkpt>
      <trkpt lat="43.25751" lon="1.1706">
        <ele>223</ele>
        <time>2021-09-19T15:53:25.000Z</time>
      </trkpt>
      <trkpt lat="43.25729" lon="1.17052">
        <ele>222.60000610352</ele>
        <time>2021-09-19T15:53:31.000Z</time>
      </trkpt>
      <trkpt lat="43.25705" lon="1.17042">
        <ele>220.80000305176</ele>
        <time>2021-09-19T15:53:38.000Z</time>
      </trkpt>
      <trkpt lat="43.25682" lon="1.17036">
        <ele>220</ele>
        <time>2021-09-19T15:53:45.000Z</time>
      </trkpt>
      <trkpt lat="43.25661" lon="1.17026">
        <ele>220.19999694824</ele>
        <time>2021-09-19T15:53:52.000Z</time>
      </trkpt>
      <trkpt lat="43.25639" lon="1.17017">
        <ele>219.39999389648</ele>
        <time>2021-09-19T15:53:58.000Z</time>
      </trkpt>
      <trkpt lat="43.25617" lon="1.17011">
        <ele>220.60000610352</ele>
        <time>2021-09-19T15:54:05.000Z</time>
      </trkpt>
      <trkpt lat="43.25595" lon="1.17015">
        <ele>221.80000305176</ele>
        <time>2021-09-19T15:54:13.000Z</time>
      </trkpt>
      <trkpt lat="43.25573" lon="1.17019">
        <ele>224.80000305176</ele>
        <time>2021-09-19T15:54:21.000Z</time>
      </trkpt>
      <trkpt lat="43.25549" lon="1.17016">
        <ele>227.19999694824</ele>
        <time>2021-09-19T15:54:30.000Z</time>
      </trkpt>
      <trkpt lat="43.25525" lon="1.17009">
        <ele>228.19999694824</ele>
        <time>2021-09-19T15:54:38.000Z</time>
      </trkpt>
      <trkpt lat="43.25501" lon="1.16997">
        <ele>229.39999389648</ele>
        <time>2021-09-19T15:54:46.000Z</time>
      </trkpt>
      <trkpt lat="43.25478" lon="1.16985">
        <ele>230.60000610352</ele>
        <time>2021-09-19T15:54:54.000Z</time>
      </trkpt>
      <trkpt lat="43.25453" lon="1.16975">
        <ele>233</ele>
        <time>2021-09-19T15:55:03.000Z</time>
      </trkpt>
      <trkpt lat="43.2545" lon="1.16974">
        <ele>233.19999694824</ele>
        <time>2021-09-19T15:55:04.000Z</time>
      </trkpt>
      <trkpt lat="43.2543" lon="1.16969">
        <ele>235</ele>
        <time>2021-09-19T15:55:11.000Z</time>
      </trkpt>
      <trkpt lat="43.25428" lon="1.16968">
        <ele>235.19999694824</ele>
        <time>2021-09-19T15:55:12.000Z</time>
      </trkpt>
      <trkpt lat="43.25406" lon="1.16963">
        <ele>237.60000610352</ele>
        <time>2021-09-19T15:55:21.000Z</time>
      </trkpt>
      <trkpt lat="43.25384" lon="1.16959">
        <ele>239.60000610352</ele>
        <time>2021-09-19T15:55:30.000Z</time>
      </trkpt>
      <trkpt lat="43.25362" lon="1.1695">
        <ele>240.80000305176</ele>
        <time>2021-09-19T15:55:39.000Z</time>
      </trkpt>
      <trkpt lat="43.25353" lon="1.16945">
        <ele>242.80000305176</ele>
        <time>2021-09-19T15:55:43.000Z</time>
      </trkpt>
      <trkpt lat="43.25334" lon="1.16944">
        <ele>246</ele>
        <time>2021-09-19T15:55:51.000Z</time>
      </trkpt>
      <trkpt lat="43.25329" lon="1.16941">
        <ele>247.39999389648</ele>
        <time>2021-09-19T15:55:53.000Z</time>
      </trkpt>
      <trkpt lat="43.25326" lon="1.16939">
        <ele>248</ele>
        <time>2021-09-19T15:55:54.000Z</time>
      </trkpt>
      <trkpt lat="43.25323" lon="1.16936">
        <ele>248.80000305176</ele>
        <time>2021-09-19T15:55:55.000Z</time>
      </trkpt>
      <trkpt lat="43.25298" lon="1.16919">
        <ele>250.19999694824</ele>
        <time>2021-09-19T15:56:03.000Z</time>
      </trkpt>
      <trkpt lat="43.25278" lon="1.16909">
        <ele>251.19999694824</ele>
        <time>2021-09-19T15:56:10.000Z</time>
      </trkpt>
      <trkpt lat="43.25258" lon="1.16893">
        <ele>252.80000305176</ele>
        <time>2021-09-19T15:56:18.000Z</time>
      </trkpt>
      <trkpt lat="43.25243" lon="1.16878">
        <ele>255.39999389648</ele>
        <time>2021-09-19T15:56:25.000Z</time>
      </trkpt>
      <trkpt lat="43.25228" lon="1.16861">
        <ele>258</ele>
        <time>2021-09-19T15:56:33.000Z</time>
      </trkpt>
      <trkpt lat="43.25214" lon="1.16852">
        <ele>260.79998779297</ele>
        <time>2021-09-19T15:56:41.000Z</time>
      </trkpt>
      <trkpt lat="43.25195" lon="1.16856">
        <ele>263</ele>
        <time>2021-09-19T15:56:50.000Z</time>
      </trkpt>
      <trkpt lat="43.25194" lon="1.16859">
        <ele>263.20001220703</ele>
        <time>2021-09-19T15:56:51.000Z</time>
      </trkpt>
      <trkpt lat="43.25192" lon="1.16861">
        <ele>263.20001220703</ele>
        <time>2021-09-19T15:56:52.000Z</time>
      </trkpt>
      <trkpt lat="43.2519" lon="1.16864">
        <ele>263.39999389648</ele>
        <time>2021-09-19T15:56:53.000Z</time>
      </trkpt>
      <trkpt lat="43.25187" lon="1.16867">
        <ele>263.39999389648</ele>
        <time>2021-09-19T15:56:54.000Z</time>
      </trkpt>
      <trkpt lat="43.25185" lon="1.1687">
        <ele>263.39999389648</ele>
        <time>2021-09-19T15:56:55.000Z</time>
      </trkpt>
      <trkpt lat="43.25183" lon="1.16874">
        <ele>263.60000610352</ele>
        <time>2021-09-19T15:56:56.000Z</time>
      </trkpt>
      <trkpt lat="43.25181" lon="1.16878">
        <ele>263.79998779297</ele>
        <time>2021-09-19T15:56:57.000Z</time>
      </trkpt>
      <trkpt lat="43.25179" lon="1.16882">
        <ele>264</ele>
        <time>2021-09-19T15:56:58.000Z</time>
      </trkpt>
      <trkpt lat="43.25163" lon="1.16911">
        <ele>263</ele>
        <time>2021-09-19T15:57:06.000Z</time>
      </trkpt>
      <trkpt lat="43.25148" lon="1.16935">
        <ele>262.79998779297</ele>
        <time>2021-09-19T15:57:13.000Z</time>
      </trkpt>
      <trkpt lat="43.2513" lon="1.16947">
        <ele>263.39999389648</ele>
        <time>2021-09-19T15:57:20.000Z</time>
      </trkpt>
      <trkpt lat="43.25109" lon="1.16946">
        <ele>264.20001220703</ele>
        <time>2021-09-19T15:57:28.000Z</time>
      </trkpt>
      <trkpt lat="43.25088" lon="1.16952">
        <ele>264.79998779297</ele>
        <time>2021-09-19T15:57:36.000Z</time>
      </trkpt>
      <trkpt lat="43.25066" lon="1.16961">
        <ele>265</ele>
        <time>2021-09-19T15:57:44.000Z</time>
      </trkpt>
      <trkpt lat="43.25044" lon="1.16961">
        <ele>265.20001220703</ele>
        <time>2021-09-19T15:57:51.000Z</time>
      </trkpt>
      <trkpt lat="43.25024" lon="1.16955">
        <ele>265.39999389648</ele>
        <time>2021-09-19T15:57:58.000Z</time>
      </trkpt>
      <trkpt lat="43.25001" lon="1.16956">
        <ele>264.79998779297</ele>
        <time>2021-09-19T15:58:05.000Z</time>
      </trkpt>
      <trkpt lat="43.24979" lon="1.16961">
        <ele>264.60000610352</ele>
        <time>2021-09-19T15:58:12.000Z</time>
      </trkpt>
      <trkpt lat="43.24957" lon="1.16964">
        <ele>265.20001220703</ele>
        <time>2021-09-19T15:58:19.000Z</time>
      </trkpt>
      <trkpt lat="43.24934" lon="1.16968">
        <ele>265</ele>
        <time>2021-09-19T15:58:26.000Z</time>
      </trkpt>
      <trkpt lat="43.2491" lon="1.16974">
        <ele>264.39999389648</ele>
        <time>2021-09-19T15:58:33.000Z</time>
      </trkpt>
      <trkpt lat="43.24888" lon="1.16979">
        <ele>263.39999389648</ele>
        <time>2021-09-19T15:58:40.000Z</time>
      </trkpt>
      <trkpt lat="43.24867" lon="1.1698">
        <ele>262</ele>
        <time>2021-09-19T15:58:47.000Z</time>
      </trkpt>
      <trkpt lat="43.24846" lon="1.16981">
        <ele>260.39999389648</ele>
        <time>2021-09-19T15:58:53.000Z</time>
      </trkpt>
      <trkpt lat="43.24824" lon="1.1698">
        <ele>261</ele>
        <time>2021-09-19T15:59:01.000Z</time>
      </trkpt>
      <trkpt lat="43.24803" lon="1.16979">
        <ele>262</ele>
        <time>2021-09-19T15:59:08.000Z</time>
      </trkpt>
      <trkpt lat="43.24783" lon="1.16964">
        <ele>262.79998779297</ele>
        <time>2021-09-19T15:59:15.000Z</time>
      </trkpt>
      <trkpt lat="43.24762" lon="1.16951">
        <ele>263.20001220703</ele>
        <time>2021-09-19T15:59:22.000Z</time>
      </trkpt>
      <trkpt lat="43.24744" lon="1.16938">
        <ele>262.79998779297</ele>
        <time>2021-09-19T15:59:28.000Z</time>
      </trkpt>
      <trkpt lat="43.24728" lon="1.16918">
        <ele>261</ele>
        <time>2021-09-19T15:59:34.000Z</time>
      </trkpt>
      <trkpt lat="43.24713" lon="1.16896">
        <ele>259.60000610352</ele>
        <time>2021-09-19T15:59:41.000Z</time>
      </trkpt>
      <trkpt lat="43.24714" lon="1.16895">
        <ele>259.20001220703</ele>
        <time>2021-09-19T15:59:44.000Z</time>
      </trkpt>
      <trkpt lat="43.24715" lon="1.16895">
        <ele>259.20001220703</ele>
        <time>2021-09-19T15:59:45.000Z</time>
      </trkpt>
      <trkpt lat="43.24716" lon="1.16894">
        <ele>259.20001220703</ele>
        <time>2021-09-19T15:59:46.000Z</time>
      </trkpt>
      <trkpt lat="43.24716" lon="1.16892">
        <ele>259</ele>
        <time>2021-09-19T15:59:47.000Z</time>
      </trkpt>
      <trkpt lat="43.24716" lon="1.1689">
        <ele>257.79998779297</ele>
        <time>2021-09-19T15:59:48.000Z</time>
      </trkpt>
      <trkpt lat="43.24716" lon="1.16887">
        <ele>256.39999389648</ele>
        <time>2021-09-19T15:59:49.000Z</time>
      </trkpt>
      <trkpt lat="43.24713" lon="1.16875">
        <ele>253.39999389648</ele>
        <time>2021-09-19T15:59:53.000Z</time>
      </trkpt>
      <trkpt lat="43.24709" lon="1.16859">
        <ele>250.19999694824</ele>
        <time>2021-09-19T15:59:59.000Z</time>
      </trkpt>
      <trkpt lat="43.24704" lon="1.16847">
        <ele>247</ele>
        <time>2021-09-19T16:00:05.000Z</time>
      </trkpt>
      <trkpt lat="43.24703" lon="1.1684">
        <ele>243.39999389648</ele>
        <time>2021-09-19T16:00:09.000Z</time>
      </trkpt>
      <trkpt lat="43.24702" lon="1.16831">
        <ele>239.80000305176</ele>
        <time>2021-09-19T16:00:13.000Z</time>
      </trkpt>
      <trkpt lat="43.24699" lon="1.16819">
        <ele>236.39999389648</ele>
        <time>2021-09-19T16:00:17.000Z</time>
      </trkpt>
      <trkpt lat="43.24693" lon="1.16803">
        <ele>233</ele>
        <time>2021-09-19T16:00:22.000Z</time>
      </trkpt>
      <trkpt lat="43.24691" lon="1.16798">
        <ele>231.19999694824</ele>
        <time>2021-09-19T16:00:24.000Z</time>
      </trkpt>
      <trkpt lat="43.2469" lon="1.16793">
        <ele>229.80000305176</ele>
        <time>2021-09-19T16:00:26.000Z</time>
      </trkpt>
      <trkpt lat="43.2469" lon="1.16782">
        <ele>226.19999694824</ele>
        <time>2021-09-19T16:00:30.000Z</time>
      </trkpt>
      <trkpt lat="43.24688" lon="1.16769">
        <ele>223.39999389648</ele>
        <time>2021-09-19T16:00:34.000Z</time>
      </trkpt>
      <trkpt lat="43.24675" lon="1.16745">
        <ele>222.80000305176</ele>
        <time>2021-09-19T16:00:41.000Z</time>
      </trkpt>
      <trkpt lat="43.24659" lon="1.16727">
        <ele>223</ele>
        <time>2021-09-19T16:00:48.000Z</time>
      </trkpt>
      <trkpt lat="43.24655" lon="1.16719">
        <ele>222.80000305176</ele>
        <time>2021-09-19T16:00:51.000Z</time>
      </trkpt>
      <trkpt lat="43.24655" lon="1.16715">
        <ele>223</ele>
        <time>2021-09-19T16:00:52.000Z</time>
      </trkpt>
      <trkpt lat="43.24648" lon="1.16681">
        <ele>220.39999389648</ele>
        <time>2021-09-19T16:01:00.000Z</time>
      </trkpt>
      <trkpt lat="43.24647" lon="1.16676">
        <ele>220.19999694824</ele>
        <time>2021-09-19T16:01:01.000Z</time>
      </trkpt>
      <trkpt lat="43.24639" lon="1.16647">
        <ele>216.19999694824</ele>
        <time>2021-09-19T16:01:07.000Z</time>
      </trkpt>
      <trkpt lat="43.24634" lon="1.16638">
        <ele>215.80000305176</ele>
        <time>2021-09-19T16:01:09.000Z</time>
      </trkpt>
      <trkpt lat="43.24632" lon="1.16633">
        <ele>215.80000305176</ele>
        <time>2021-09-19T16:01:10.000Z</time>
      </trkpt>
      <trkpt lat="43.24618" lon="1.16608">
        <ele>213.60000610352</ele>
        <time>2021-09-19T16:01:16.000Z</time>
      </trkpt>
      <trkpt lat="43.24608" lon="1.16583">
        <ele>214.60000610352</ele>
        <time>2021-09-19T16:01:22.000Z</time>
      </trkpt>
      <trkpt lat="43.24599" lon="1.16557">
        <ele>214.60000610352</ele>
        <time>2021-09-19T16:01:28.000Z</time>
      </trkpt>
      <trkpt lat="43.24588" lon="1.16529">
        <ele>214.39999389648</ele>
        <time>2021-09-19T16:01:34.000Z</time>
      </trkpt>
      <trkpt lat="43.2458" lon="1.16506">
        <ele>214</ele>
        <time>2021-09-19T16:01:39.000Z</time>
      </trkpt>
      <trkpt lat="43.24572" lon="1.16476">
        <ele>214.19999694824</ele>
        <time>2021-09-19T16:01:45.000Z</time>
      </trkpt>
      <trkpt lat="43.24565" lon="1.16448">
        <ele>214</ele>
        <time>2021-09-19T16:01:51.000Z</time>
      </trkpt>
      <trkpt lat="43.24557" lon="1.16421">
        <ele>214.19999694824</ele>
        <time>2021-09-19T16:01:57.000Z</time>
      </trkpt>
      <trkpt lat="43.24547" lon="1.164">
        <ele>215.80000305176</ele>
        <time>2021-09-19T16:02:03.000Z</time>
      </trkpt>
      <trkpt lat="43.24545" lon="1.16396">
        <ele>216</ele>
        <time>2021-09-19T16:02:04.000Z</time>
      </trkpt>
      <trkpt lat="43.24539" lon="1.1637">
        <ele>215.19999694824</ele>
        <time>2021-09-19T16:02:10.000Z</time>
      </trkpt>
      <trkpt lat="43.24532" lon="1.16344">
        <ele>215.60000610352</ele>
        <time>2021-09-19T16:02:16.000Z</time>
      </trkpt>
      <trkpt lat="43.24526" lon="1.16317">
        <ele>215.60000610352</ele>
        <time>2021-09-19T16:02:22.000Z</time>
      </trkpt>
      <trkpt lat="43.24517" lon="1.16292">
        <ele>216.80000305176</ele>
        <time>2021-09-19T16:02:28.000Z</time>
      </trkpt>
      <trkpt lat="43.24511" lon="1.16267">
        <ele>217.19999694824</ele>
        <time>2021-09-19T16:02:34.000Z</time>
      </trkpt>
      <trkpt lat="43.24504" lon="1.16241">
        <ele>217.19999694824</ele>
        <time>2021-09-19T16:02:40.000Z</time>
      </trkpt>
      <trkpt lat="43.24497" lon="1.16216">
        <ele>217.60000610352</ele>
        <time>2021-09-19T16:02:46.000Z</time>
      </trkpt>
      <trkpt lat="43.24489" lon="1.16192">
        <ele>218</ele>
        <time>2021-09-19T16:02:52.000Z</time>
      </trkpt>
      <trkpt lat="43.2448" lon="1.16164">
        <ele>218.39999389648</ele>
        <time>2021-09-19T16:02:59.000Z</time>
      </trkpt>
      <trkpt lat="43.2447" lon="1.16137">
        <ele>218.80000305176</ele>
        <time>2021-09-19T16:03:05.000Z</time>
      </trkpt>
      <trkpt lat="43.24462" lon="1.16111">
        <ele>218.80000305176</ele>
        <time>2021-09-19T16:03:11.000Z</time>
      </trkpt>
      <trkpt lat="43.24455" lon="1.16084">
        <ele>219</ele>
        <time>2021-09-19T16:03:17.000Z</time>
      </trkpt>
      <trkpt lat="43.24447" lon="1.16058">
        <ele>218.60000610352</ele>
        <time>2021-09-19T16:03:23.000Z</time>
      </trkpt>
      <trkpt lat="43.24436" lon="1.16034">
        <ele>218.60000610352</ele>
        <time>2021-09-19T16:03:29.000Z</time>
      </trkpt>
      <trkpt lat="43.24427" lon="1.16009">
        <ele>218.60000610352</ele>
        <time>2021-09-19T16:03:35.000Z</time>
      </trkpt>
      <trkpt lat="43.24421" lon="1.15984">
        <ele>218.80000305176</ele>
        <time>2021-09-19T16:03:41.000Z</time>
      </trkpt>
      <trkpt lat="43.24413" lon="1.15957">
        <ele>219.19999694824</ele>
        <time>2021-09-19T16:03:47.000Z</time>
      </trkpt>
      <trkpt lat="43.24407" lon="1.15932">
        <ele>219.80000305176</ele>
        <time>2021-09-19T16:03:53.000Z</time>
      </trkpt>
      <trkpt lat="43.244" lon="1.15903">
        <ele>218.60000610352</ele>
        <time>2021-09-19T16:04:00.000Z</time>
      </trkpt>
      <trkpt lat="43.24392" lon="1.15877">
        <ele>219.80000305176</ele>
        <time>2021-09-19T16:04:06.000Z</time>
      </trkpt>
      <trkpt lat="43.2439" lon="1.15849">
        <ele>219</ele>
        <time>2021-09-19T16:04:13.000Z</time>
      </trkpt>
      <trkpt lat="43.24389" lon="1.15845">
        <ele>218.80000305176</ele>
        <time>2021-09-19T16:04:14.000Z</time>
      </trkpt>
      <trkpt lat="43.24376" lon="1.15822">
        <ele>217.80000305176</ele>
        <time>2021-09-19T16:04:21.000Z</time>
      </trkpt>
      <trkpt lat="43.24368" lon="1.15798">
        <ele>215.80000305176</ele>
        <time>2021-09-19T16:04:28.000Z</time>
      </trkpt>
      <trkpt lat="43.24364" lon="1.15778">
        <ele>212.60000610352</ele>
        <time>2021-09-19T16:04:32.000Z</time>
      </trkpt>
      <trkpt lat="43.24358" lon="1.15752">
        <ele>210.19999694824</ele>
        <time>2021-09-19T16:04:37.000Z</time>
      </trkpt>
      <trkpt lat="43.24348" lon="1.15726">
        <ele>209.19999694824</ele>
        <time>2021-09-19T16:04:44.000Z</time>
      </trkpt>
      <trkpt lat="43.24343" lon="1.157">
        <ele>209.19999694824</ele>
        <time>2021-09-19T16:04:50.000Z</time>
      </trkpt>
      <trkpt lat="43.2434" lon="1.15679">
        <ele>208.60000610352</ele>
        <time>2021-09-19T16:04:54.000Z</time>
      </trkpt>
      <trkpt lat="43.24333" lon="1.15662">
        <ele>208.39999389648</ele>
        <time>2021-09-19T16:04:58.000Z</time>
      </trkpt>
      <trkpt lat="43.24322" lon="1.15635">
        <ele>208.60000610352</ele>
        <time>2021-09-19T16:05:05.000Z</time>
      </trkpt>
      <trkpt lat="43.24311" lon="1.15607">
        <ele>208.80000305176</ele>
        <time>2021-09-19T16:05:12.000Z</time>
      </trkpt>
      <trkpt lat="43.24302" lon="1.15579">
        <ele>209.19999694824</ele>
        <time>2021-09-19T16:05:19.000Z</time>
      </trkpt>
      <trkpt lat="43.24294" lon="1.15554">
        <ele>209</ele>
        <time>2021-09-19T16:05:25.000Z</time>
      </trkpt>
      <trkpt lat="43.2428" lon="1.15534">
        <ele>209</ele>
        <time>2021-09-19T16:05:32.000Z</time>
      </trkpt>
      <trkpt lat="43.24263" lon="1.15517">
        <ele>210</ele>
        <time>2021-09-19T16:05:39.000Z</time>
      </trkpt>
      <trkpt lat="43.24245" lon="1.15499">
        <ele>210</ele>
        <time>2021-09-19T16:05:45.000Z</time>
      </trkpt>
      <trkpt lat="43.2423" lon="1.1547">
        <ele>210</ele>
        <time>2021-09-19T16:05:52.000Z</time>
      </trkpt>
      <trkpt lat="43.24216" lon="1.15445">
        <ele>209.39999389648</ele>
        <time>2021-09-19T16:05:59.000Z</time>
      </trkpt>
      <trkpt lat="43.24199" lon="1.15425">
        <ele>209.19999694824</ele>
        <time>2021-09-19T16:06:07.000Z</time>
      </trkpt>
      <trkpt lat="43.24181" lon="1.15408">
        <ele>209.60000610352</ele>
        <time>2021-09-19T16:06:15.000Z</time>
      </trkpt>
      <trkpt lat="43.24162" lon="1.15389">
        <ele>210.39999389648</ele>
        <time>2021-09-19T16:06:22.000Z</time>
      </trkpt>
      <trkpt lat="43.24137" lon="1.15377">
        <ele>209.80000305176</ele>
        <time>2021-09-19T16:06:30.000Z</time>
      </trkpt>
      <trkpt lat="43.2411" lon="1.15372">
        <ele>210</ele>
        <time>2021-09-19T16:06:38.000Z</time>
      </trkpt>
      <trkpt lat="43.24082" lon="1.15377">
        <ele>211.60000610352</ele>
        <time>2021-09-19T16:06:46.000Z</time>
      </trkpt>
      <trkpt lat="43.24058" lon="1.15386">
        <ele>213.80000305176</ele>
        <time>2021-09-19T16:06:55.000Z</time>
      </trkpt>
      <trkpt lat="43.24042" lon="1.15396">
        <ele>214.39999389648</ele>
        <time>2021-09-19T16:07:01.000Z</time>
      </trkpt>
      <trkpt lat="43.2404" lon="1.15396">
        <ele>214.39999389648</ele>
        <time>2021-09-19T16:07:02.000Z</time>
      </trkpt>
      <trkpt lat="43.24038" lon="1.15396">
        <ele>214.39999389648</ele>
        <time>2021-09-19T16:07:03.000Z</time>
      </trkpt>
      <trkpt lat="43.24037" lon="1.15396">
        <ele>214.39999389648</ele>
        <time>2021-09-19T16:07:04.000Z</time>
      </trkpt>
      <trkpt lat="43.24035" lon="1.15395">
        <ele>214.60000610352</ele>
        <time>2021-09-19T16:07:05.000Z</time>
      </trkpt>
      <trkpt lat="43.2403" lon="1.15401">
        <ele>214.60000610352</ele>
        <time>2021-09-19T16:07:23.000Z</time>
      </trkpt>
      <trkpt lat="43.24029" lon="1.15403">
        <ele>214.39999389648</ele>
        <time>2021-09-19T16:07:24.000Z</time>
      </trkpt>
      <trkpt lat="43.24029" lon="1.15405">
        <ele>214.39999389648</ele>
        <time>2021-09-19T16:07:25.000Z</time>
      </trkpt>
      <trkpt lat="43.24028" lon="1.15407">
        <ele>214.39999389648</ele>
        <time>2021-09-19T16:07:26.000Z</time>
      </trkpt>
      <trkpt lat="43.24027" lon="1.1541">
        <ele>214.60000610352</ele>
        <time>2021-09-19T16:07:27.000Z</time>
      </trkpt>
      <trkpt lat="43.24026" lon="1.15413">
        <ele>214.60000610352</ele>
        <time>2021-09-19T16:07:28.000Z</time>
      </trkpt>
      <trkpt lat="43.24025" lon="1.15416">
        <ele>214.80000305176</ele>
        <time>2021-09-19T16:07:29.000Z</time>
      </trkpt>
      <trkpt lat="43.2401" lon="1.15435">
        <ele>215.19999694824</ele>
        <time>2021-09-19T16:07:37.000Z</time>
      </trkpt>
      <trkpt lat="43.24008" lon="1.15434">
        <ele>215</ele>
        <time>2021-09-19T16:07:38.000Z</time>
      </trkpt>
      <trkpt lat="43.24006" lon="1.15433">
        <ele>215</ele>
        <time>2021-09-19T16:07:39.000Z</time>
      </trkpt>
      <trkpt lat="43.24004" lon="1.15432">
        <ele>215</ele>
        <time>2021-09-19T16:07:40.000Z</time>
      </trkpt>
      <trkpt lat="43.24001" lon="1.15432">
        <ele>215</ele>
        <time>2021-09-19T16:07:41.000Z</time>
      </trkpt>
      <trkpt lat="43.23982" lon="1.15421">
        <ele>215.19999694824</ele>
        <time>2021-09-19T16:07:49.000Z</time>
      </trkpt>
      <trkpt lat="43.23962" lon="1.1541">
        <ele>215.39999389648</ele>
        <time>2021-09-19T16:07:56.000Z</time>
      </trkpt>
      <trkpt lat="43.23938" lon="1.15408">
        <ele>215.80000305176</ele>
        <time>2021-09-19T16:08:03.000Z</time>
      </trkpt>
      <trkpt lat="43.23916" lon="1.15414">
        <ele>216</ele>
        <time>2021-09-19T16:08:10.000Z</time>
      </trkpt>
      <trkpt lat="43.23902" lon="1.15442">
        <ele>216</ele>
        <time>2021-09-19T16:08:17.000Z</time>
      </trkpt>
      <trkpt lat="43.23889" lon="1.15474">
        <ele>216.39999389648</ele>
        <time>2021-09-19T16:08:23.000Z</time>
      </trkpt>
      <trkpt lat="43.2388" lon="1.15502">
        <ele>217.19999694824</ele>
        <time>2021-09-19T16:08:29.000Z</time>
      </trkpt>
      <trkpt lat="43.23872" lon="1.15531">
        <ele>218</ele>
        <time>2021-09-19T16:08:36.000Z</time>
      </trkpt>
      <trkpt lat="43.23863" lon="1.15558">
        <ele>219</ele>
        <time>2021-09-19T16:08:43.000Z</time>
      </trkpt>
      <trkpt lat="43.23853" lon="1.15573">
        <ele>220</ele>
        <time>2021-09-19T16:08:48.000Z</time>
      </trkpt>
      <trkpt lat="43.2385" lon="1.15572">
        <ele>220.19999694824</ele>
        <time>2021-09-19T16:08:49.000Z</time>
      </trkpt>
      <trkpt lat="43.23848" lon="1.15571">
        <ele>220.39999389648</ele>
        <time>2021-09-19T16:08:50.000Z</time>
      </trkpt>
      <trkpt lat="43.23846" lon="1.1557">
        <ele>220.39999389648</ele>
        <time>2021-09-19T16:08:51.000Z</time>
      </trkpt>
      <trkpt lat="43.23843" lon="1.15569">
        <ele>220.39999389648</ele>
        <time>2021-09-19T16:08:52.000Z</time>
      </trkpt>
      <trkpt lat="43.23826" lon="1.15559">
        <ele>221</ele>
        <time>2021-09-19T16:09:03.000Z</time>
      </trkpt>
      <trkpt lat="43.23807" lon="1.15556">
        <ele>221.80000305176</ele>
        <time>2021-09-19T16:09:15.000Z</time>
      </trkpt>
      <trkpt lat="43.238" lon="1.15546">
        <ele>222.19999694824</ele>
        <time>2021-09-19T16:09:37.000Z</time>
      </trkpt>
      <trkpt lat="43.23802" lon="1.15545">
        <ele>222.19999694824</ele>
        <time>2021-09-19T16:09:41.000Z</time>
      </trkpt>
      <trkpt lat="43.23797" lon="1.15551">
        <ele>222</ele>
        <time>2021-09-19T16:10:12.000Z</time>
      </trkpt>
      <trkpt lat="43.23795" lon="1.15553">
        <ele>222</ele>
        <time>2021-09-19T16:10:16.000Z</time>
      </trkpt>
      <trkpt lat="43.23795" lon="1.15549">
        <ele>222.19999694824</ele>
        <time>2021-09-19T16:10:40.000Z</time>
      </trkpt>
      <trkpt lat="43.23796" lon="1.15544">
        <ele>222</ele>
        <time>2021-09-19T16:10:59.000Z</time>
      </trkpt>
      <trkpt lat="43.23796" lon="1.15542">
        <ele>221.80000305176</ele>
        <time>2021-09-19T16:11:00.000Z</time>
      </trkpt>
      <trkpt lat="43.23796" lon="1.1554">
        <ele>221.80000305176</ele>
        <time>2021-09-19T16:11:01.000Z</time>
      </trkpt>
      <trkpt lat="43.23805" lon="1.15515">
        <ele>218.60000610352</ele>
        <time>2021-09-19T16:11:15.000Z</time>
      </trkpt>
      <trkpt lat="43.23823" lon="1.15498">
        <ele>217.39999389648</ele>
        <time>2021-09-19T16:11:22.000Z</time>
      </trkpt>
      <trkpt lat="43.2383" lon="1.15475">
        <ele>215.80000305176</ele>
        <time>2021-09-19T16:11:30.000Z</time>
      </trkpt>
      <trkpt lat="43.23823" lon="1.15462">
        <ele>216</ele>
        <time>2021-09-19T16:11:35.000Z</time>
      </trkpt>
      <trkpt lat="43.23821" lon="1.15461">
        <ele>216.19999694824</ele>
        <time>2021-09-19T16:11:36.000Z</time>
      </trkpt>
      <trkpt lat="43.23819" lon="1.15461">
        <ele>216.39999389648</ele>
        <time>2021-09-19T16:11:37.000Z</time>
      </trkpt>
      <trkpt lat="43.23817" lon="1.15461">
        <ele>216.39999389648</ele>
        <time>2021-09-19T16:11:38.000Z</time>
      </trkpt>
      <trkpt lat="43.23815" lon="1.15462">
        <ele>216.39999389648</ele>
        <time>2021-09-19T16:11:39.000Z</time>
      </trkpt>
      <trkpt lat="43.23812" lon="1.15464">
        <ele>216.80000305176</ele>
        <time>2021-09-19T16:11:40.000Z</time>
      </trkpt>
      <trkpt lat="43.2381" lon="1.15467">
        <ele>216.80000305176</ele>
        <time>2021-09-19T16:11:41.000Z</time>
      </trkpt>
      <trkpt lat="43.23796" lon="1.15483">
        <ele>217.60000610352</ele>
        <time>2021-09-19T16:11:48.000Z</time>
      </trkpt>
      <trkpt lat="43.2379" lon="1.15487">
        <ele>217.80000305176</ele>
        <time>2021-09-19T16:11:50.000Z</time>
      </trkpt>
      <trkpt lat="43.23768" lon="1.15488">
        <ele>218.80000305176</ele>
        <time>2021-09-19T16:11:57.000Z</time>
      </trkpt>
      <trkpt lat="43.23746" lon="1.15488">
        <ele>220</ele>
        <time>2021-09-19T16:12:05.000Z</time>
      </trkpt>
      <trkpt lat="43.23726" lon="1.15496">
        <ele>221.39999389648</ele>
        <time>2021-09-19T16:12:15.000Z</time>
      </trkpt>
      <trkpt lat="43.23706" lon="1.15506">
        <ele>223.80000305176</ele>
        <time>2021-09-19T16:12:25.000Z</time>
      </trkpt>
      <trkpt lat="43.23689" lon="1.155">
        <ele>225</ele>
        <time>2021-09-19T16:12:33.000Z</time>
      </trkpt>
      <trkpt lat="43.23687" lon="1.15502">
        <ele>225</ele>
        <time>2021-09-19T16:12:34.000Z</time>
      </trkpt>
      <trkpt lat="43.23687" lon="1.15504">
        <ele>225.39999389648</ele>
        <time>2021-09-19T16:12:35.000Z</time>
      </trkpt>
      <trkpt lat="43.23687" lon="1.15506">
        <ele>225.60000610352</ele>
        <time>2021-09-19T16:12:36.000Z</time>
      </trkpt>
      <trkpt lat="43.23688" lon="1.15508">
        <ele>226</ele>
        <time>2021-09-19T16:12:37.000Z</time>
      </trkpt>
      <trkpt lat="43.23688" lon="1.1551">
        <ele>226.39999389648</ele>
        <time>2021-09-19T16:12:38.000Z</time>
      </trkpt>
      <trkpt lat="43.23688" lon="1.15513">
        <ele>226.60000610352</ele>
        <time>2021-09-19T16:12:39.000Z</time>
      </trkpt>
      <trkpt lat="43.23688" lon="1.15515">
        <ele>227</ele>
        <time>2021-09-19T16:12:40.000Z</time>
      </trkpt>
      <trkpt lat="43.23702" lon="1.15534">
        <ele>227.39999389648</ele>
        <time>2021-09-19T16:12:49.000Z</time>
      </trkpt>
      <trkpt lat="43.23715" lon="1.15547">
        <ele>227.39999389648</ele>
        <time>2021-09-19T16:12:56.000Z</time>
      </trkpt>
      <trkpt lat="43.23716" lon="1.1555">
        <ele>227.39999389648</ele>
        <time>2021-09-19T16:12:57.000Z</time>
      </trkpt>
      <trkpt lat="43.23716" lon="1.15554">
        <ele>227.60000610352</ele>
        <time>2021-09-19T16:12:58.000Z</time>
      </trkpt>
      <trkpt lat="43.2372" lon="1.15583">
        <ele>229.60000610352</ele>
        <time>2021-09-19T16:13:08.000Z</time>
      </trkpt>
      <trkpt lat="43.23727" lon="1.1559">
        <ele>229.60000610352</ele>
        <time>2021-09-19T16:13:13.000Z</time>
      </trkpt>
      <trkpt lat="43.2373" lon="1.15594">
        <ele>229.80000305176</ele>
        <time>2021-09-19T16:13:22.000Z</time>
      </trkpt>
      <trkpt lat="43.23732" lon="1.15594">
        <ele>229.60000610352</ele>
        <time>2021-09-19T16:13:25.000Z</time>
      </trkpt>
      <trkpt lat="43.23738" lon="1.15598">
        <ele>229.60000610352</ele>
        <time>2021-09-19T16:21:27.000Z</time>
      </trkpt>
      <trkpt lat="43.23738" lon="1.15597">
        <ele>229.60000610352</ele>
        <time>2021-09-19T16:21:28.000Z</time>
      </trkpt>
      <trkpt lat="43.23739" lon="1.15598">
        <ele>229.39999389648</ele>
        <time>2021-09-19T16:21:38.000Z</time>
      </trkpt>
      <trkpt lat="43.23738" lon="1.156">
        <ele>229.39999389648</ele>
        <time>2021-09-19T16:21:39.000Z</time>
      </trkpt>
      <trkpt lat="43.23738" lon="1.15604">
        <ele>229.60000610352</ele>
        <time>2021-09-19T16:21:40.000Z</time>
      </trkpt>
      <trkpt lat="43.23737" lon="1.15632">
        <ele>231.60000610352</ele>
        <time>2021-09-19T16:21:49.000Z</time>
      </trkpt>
      <trkpt lat="43.23737" lon="1.15642">
        <ele>232.60000610352</ele>
        <time>2021-09-19T16:21:54.000Z</time>
      </trkpt>
      <trkpt lat="43.23738" lon="1.15643">
        <ele>232.80000305176</ele>
        <time>2021-09-19T16:21:55.000Z</time>
      </trkpt>
      <trkpt lat="43.2374" lon="1.15645">
        <ele>233</ele>
        <time>2021-09-19T16:21:56.000Z</time>
      </trkpt>
      <trkpt lat="43.23744" lon="1.15645">
        <ele>233.39999389648</ele>
        <time>2021-09-19T16:21:57.000Z</time>
      </trkpt>
      <trkpt lat="43.23746" lon="1.15645">
        <ele>233.39999389648</ele>
        <time>2021-09-19T16:21:58.000Z</time>
      </trkpt>
      <trkpt lat="43.2375" lon="1.15646">
        <ele>233.39999389648</ele>
        <time>2021-09-19T16:21:59.000Z</time>
      </trkpt>
      <trkpt lat="43.23753" lon="1.15646">
        <ele>233.19999694824</ele>
        <time>2021-09-19T16:22:00.000Z</time>
      </trkpt>
      <trkpt lat="43.23756" lon="1.15646">
        <ele>232.80000305176</ele>
        <time>2021-09-19T16:22:01.000Z</time>
      </trkpt>
      <trkpt lat="43.23778" lon="1.15647">
        <ele>229.39999389648</ele>
        <time>2021-09-19T16:22:10.000Z</time>
      </trkpt>
      <trkpt lat="43.23793" lon="1.15644">
        <ele>227.39999389648</ele>
        <time>2021-09-19T16:22:15.000Z</time>
      </trkpt>
      <trkpt lat="43.23806" lon="1.1565">
        <ele>227</ele>
        <time>2021-09-19T16:22:20.000Z</time>
      </trkpt>
      <trkpt lat="43.23808" lon="1.15654">
        <ele>227</ele>
        <time>2021-09-19T16:22:21.000Z</time>
      </trkpt>
      <trkpt lat="43.2383" lon="1.15673">
        <ele>226</ele>
        <time>2021-09-19T16:22:31.000Z</time>
      </trkpt>
      <trkpt lat="43.23854" lon="1.15688">
        <ele>225.60000610352</ele>
        <time>2021-09-19T16:22:39.000Z</time>
      </trkpt>
      <trkpt lat="43.23871" lon="1.15697">
        <ele>225.19999694824</ele>
        <time>2021-09-19T16:22:46.000Z</time>
      </trkpt>
      <trkpt lat="43.23873" lon="1.15699">
        <ele>225.19999694824</ele>
        <time>2021-09-19T16:22:47.000Z</time>
      </trkpt>
      <trkpt lat="43.23875" lon="1.157">
        <ele>225.39999389648</ele>
        <time>2021-09-19T16:22:48.000Z</time>
      </trkpt>
      <trkpt lat="43.23877" lon="1.15702">
        <ele>225.19999694824</ele>
        <time>2021-09-19T16:22:49.000Z</time>
      </trkpt>
      <trkpt lat="43.23879" lon="1.15703">
        <ele>225.19999694824</ele>
        <time>2021-09-19T16:22:50.000Z</time>
      </trkpt>
      <trkpt lat="43.23881" lon="1.15705">
        <ele>225.39999389648</ele>
        <time>2021-09-19T16:22:51.000Z</time>
      </trkpt>
      <trkpt lat="43.23883" lon="1.15707">
        <ele>225.39999389648</ele>
        <time>2021-09-19T16:22:52.000Z</time>
      </trkpt>
      <trkpt lat="43.23885" lon="1.15709">
        <ele>225.39999389648</ele>
        <time>2021-09-19T16:22:53.000Z</time>
      </trkpt>
      <trkpt lat="43.23888" lon="1.15712">
        <ele>225.60000610352</ele>
        <time>2021-09-19T16:22:54.000Z</time>
      </trkpt>
      <trkpt lat="43.23905" lon="1.15731">
        <ele>226.19999694824</ele>
        <time>2021-09-19T16:23:01.000Z</time>
      </trkpt>
      <trkpt lat="43.23904" lon="1.15735">
        <ele>226.19999694824</ele>
        <time>2021-09-19T16:23:02.000Z</time>
      </trkpt>
      <trkpt lat="43.23903" lon="1.15738">
        <ele>226.19999694824</ele>
        <time>2021-09-19T16:23:03.000Z</time>
      </trkpt>
      <trkpt lat="43.23902" lon="1.15741">
        <ele>226.39999389648</ele>
        <time>2021-09-19T16:23:04.000Z</time>
      </trkpt>
      <trkpt lat="43.23894" lon="1.15752">
        <ele>229.60000610352</ele>
        <time>2021-09-19T16:23:12.000Z</time>
      </trkpt>
      <trkpt lat="43.23891" lon="1.15754">
        <ele>230.80000305176</ele>
        <time>2021-09-19T16:23:15.000Z</time>
      </trkpt>
      <trkpt lat="43.2389" lon="1.15756">
        <ele>231.19999694824</ele>
        <time>2021-09-19T16:23:16.000Z</time>
      </trkpt>
      <trkpt lat="43.2389" lon="1.15759">
        <ele>231.60000610352</ele>
        <time>2021-09-19T16:23:17.000Z</time>
      </trkpt>
      <trkpt lat="43.23889" lon="1.15762">
        <ele>232</ele>
        <time>2021-09-19T16:23:18.000Z</time>
      </trkpt>
      <trkpt lat="43.23879" lon="1.15781">
        <ele>235.39999389648</ele>
        <time>2021-09-19T16:23:26.000Z</time>
      </trkpt>
      <trkpt lat="43.23878" lon="1.15785">
        <ele>236.80000305176</ele>
        <time>2021-09-19T16:23:28.000Z</time>
      </trkpt>
      <trkpt lat="43.23877" lon="1.15787">
        <ele>237.39999389648</ele>
        <time>2021-09-19T16:23:29.000Z</time>
      </trkpt>
      <trkpt lat="43.23879" lon="1.15789">
        <ele>237.80000305176</ele>
        <time>2021-09-19T16:23:30.000Z</time>
      </trkpt>
      <trkpt lat="43.23878" lon="1.15792">
        <ele>238</ele>
        <time>2021-09-19T16:23:31.000Z</time>
      </trkpt>
      <trkpt lat="43.23878" lon="1.15794">
        <ele>238.39999389648</ele>
        <time>2021-09-19T16:23:32.000Z</time>
      </trkpt>
      <trkpt lat="43.23877" lon="1.15809">
        <ele>241.19999694824</ele>
        <time>2021-09-19T16:23:39.000Z</time>
      </trkpt>
      <trkpt lat="43.23877" lon="1.15817">
        <ele>242.60000610352</ele>
        <time>2021-09-19T16:23:43.000Z</time>
      </trkpt>
      <trkpt lat="43.23877" lon="1.15819">
        <ele>242.80000305176</ele>
        <time>2021-09-19T16:23:44.000Z</time>
      </trkpt>
      <trkpt lat="43.23877" lon="1.15821">
        <ele>243</ele>
        <time>2021-09-19T16:23:45.000Z</time>
      </trkpt>
      <trkpt lat="43.23878" lon="1.15824">
        <ele>243.39999389648</ele>
        <time>2021-09-19T16:23:46.000Z</time>
      </trkpt>
      <trkpt lat="43.23879" lon="1.15827">
        <ele>243</ele>
        <time>2021-09-19T16:23:47.000Z</time>
      </trkpt>
      <trkpt lat="43.23881" lon="1.15831">
        <ele>242.80000305176</ele>
        <time>2021-09-19T16:23:48.000Z</time>
      </trkpt>
      <trkpt lat="43.23884" lon="1.15834">
        <ele>242.39999389648</ele>
        <time>2021-09-19T16:23:49.000Z</time>
      </trkpt>
      <trkpt lat="43.23889" lon="1.15836">
        <ele>242.39999389648</ele>
        <time>2021-09-19T16:23:50.000Z</time>
      </trkpt>
      <trkpt lat="43.23892" lon="1.15839">
        <ele>242.19999694824</ele>
        <time>2021-09-19T16:23:51.000Z</time>
      </trkpt>
      <trkpt lat="43.23915" lon="1.15852">
        <ele>241.19999694824</ele>
        <time>2021-09-19T16:23:58.000Z</time>
      </trkpt>
      <trkpt lat="43.23934" lon="1.15865">
        <ele>239.39999389648</ele>
        <time>2021-09-19T16:24:04.000Z</time>
      </trkpt>
      <trkpt lat="43.2394" lon="1.1587">
        <ele>238.60000610352</ele>
        <time>2021-09-19T16:24:06.000Z</time>
      </trkpt>
      <trkpt lat="43.23957" lon="1.15884">
        <ele>237.19999694824</ele>
        <time>2021-09-19T16:24:13.000Z</time>
      </trkpt>
      <trkpt lat="43.23975" lon="1.159">
        <ele>235.19999694824</ele>
        <time>2021-09-19T16:24:20.000Z</time>
      </trkpt>
      <trkpt lat="43.23994" lon="1.15917">
        <ele>233.60000610352</ele>
        <time>2021-09-19T16:24:27.000Z</time>
      </trkpt>
      <trkpt lat="43.24009" lon="1.15934">
        <ele>232.19999694824</ele>
        <time>2021-09-19T16:24:33.000Z</time>
      </trkpt>
      <trkpt lat="43.24023" lon="1.15953">
        <ele>231.80000305176</ele>
        <time>2021-09-19T16:24:39.000Z</time>
      </trkpt>
      <trkpt lat="43.24031" lon="1.15978">
        <ele>231.19999694824</ele>
        <time>2021-09-19T16:24:45.000Z</time>
      </trkpt>
      <trkpt lat="43.24029" lon="1.16007">
        <ele>235</ele>
        <time>2021-09-19T16:24:53.000Z</time>
      </trkpt>
      <trkpt lat="43.24026" lon="1.16015">
        <ele>235.60000610352</ele>
        <time>2021-09-19T16:24:55.000Z</time>
      </trkpt>
      <trkpt lat="43.24025" lon="1.16024">
        <ele>237</ele>
        <time>2021-09-19T16:24:58.000Z</time>
      </trkpt>
      <trkpt lat="43.24021" lon="1.16049">
        <ele>240.19999694824</ele>
        <time>2021-09-19T16:25:06.000Z</time>
      </trkpt>
      <trkpt lat="43.24014" lon="1.16069">
        <ele>243.39999389648</ele>
        <time>2021-09-19T16:25:13.000Z</time>
      </trkpt>
      <trkpt lat="43.24015" lon="1.1608">
        <ele>245.60000610352</ele>
        <time>2021-09-19T16:25:17.000Z</time>
      </trkpt>
      <trkpt lat="43.24018" lon="1.16087">
        <ele>248.80000305176</ele>
        <time>2021-09-19T16:25:22.000Z</time>
      </trkpt>
      <trkpt lat="43.24021" lon="1.16095">
        <ele>251.39999389648</ele>
        <time>2021-09-19T16:25:27.000Z</time>
      </trkpt>
      <trkpt lat="43.24023" lon="1.16096">
        <ele>251.60000610352</ele>
        <time>2021-09-19T16:25:28.000Z</time>
      </trkpt>
      <trkpt lat="43.24025" lon="1.16097">
        <ele>251.39999389648</ele>
        <time>2021-09-19T16:25:29.000Z</time>
      </trkpt>
      <trkpt lat="43.24027" lon="1.16097">
        <ele>251</ele>
        <time>2021-09-19T16:25:30.000Z</time>
      </trkpt>
      <trkpt lat="43.24029" lon="1.16097">
        <ele>250.80000305176</ele>
        <time>2021-09-19T16:25:31.000Z</time>
      </trkpt>
      <trkpt lat="43.24031" lon="1.16098">
        <ele>250.60000610352</ele>
        <time>2021-09-19T16:25:32.000Z</time>
      </trkpt>
      <trkpt lat="43.24033" lon="1.16099">
        <ele>250</ele>
        <time>2021-09-19T16:25:33.000Z</time>
      </trkpt>
      <trkpt lat="43.24036" lon="1.161">
        <ele>249.80000305176</ele>
        <time>2021-09-19T16:25:34.000Z</time>
      </trkpt>
      <trkpt lat="43.24054" lon="1.16123">
        <ele>252.19999694824</ele>
        <time>2021-09-19T16:25:44.000Z</time>
      </trkpt>
      <trkpt lat="43.24056" lon="1.16129">
        <ele>253.60000610352</ele>
        <time>2021-09-19T16:25:47.000Z</time>
      </trkpt>
      <trkpt lat="43.24056" lon="1.16131">
        <ele>254.19999694824</ele>
        <time>2021-09-19T16:25:48.000Z</time>
      </trkpt>
      <trkpt lat="43.24056" lon="1.16132">
        <ele>255</ele>
        <time>2021-09-19T16:25:49.000Z</time>
      </trkpt>
      <trkpt lat="43.24056" lon="1.16135">
        <ele>255.80000305176</ele>
        <time>2021-09-19T16:25:50.000Z</time>
      </trkpt>
      <trkpt lat="43.24055" lon="1.16137">
        <ele>256.20001220703</ele>
        <time>2021-09-19T16:25:51.000Z</time>
      </trkpt>
      <trkpt lat="43.24054" lon="1.16138">
        <ele>257.20001220703</ele>
        <time>2021-09-19T16:25:52.000Z</time>
      </trkpt>
      <trkpt lat="43.24053" lon="1.16139">
        <ele>258</ele>
        <time>2021-09-19T16:25:53.000Z</time>
      </trkpt>
      <trkpt lat="43.24052" lon="1.1614">
        <ele>258.60000610352</ele>
        <time>2021-09-19T16:25:54.000Z</time>
      </trkpt>
      <trkpt lat="43.24052" lon="1.16141">
        <ele>259.39999389648</ele>
        <time>2021-09-19T16:25:55.000Z</time>
      </trkpt>
      <trkpt lat="43.24052" lon="1.16142">
        <ele>260</ele>
        <time>2021-09-19T16:25:56.000Z</time>
      </trkpt>
      <trkpt lat="43.24051" lon="1.16144">
        <ele>260.79998779297</ele>
        <time>2021-09-19T16:25:57.000Z</time>
      </trkpt>
      <trkpt lat="43.24051" lon="1.16146">
        <ele>261.39999389648</ele>
        <time>2021-09-19T16:25:58.000Z</time>
      </trkpt>
      <trkpt lat="43.2405" lon="1.16149">
        <ele>261.79998779297</ele>
        <time>2021-09-19T16:25:59.000Z</time>
      </trkpt>
      <trkpt lat="43.24051" lon="1.16153">
        <ele>262</ele>
        <time>2021-09-19T16:26:00.000Z</time>
      </trkpt>
      <trkpt lat="43.24054" lon="1.16157">
        <ele>261.79998779297</ele>
        <time>2021-09-19T16:26:01.000Z</time>
      </trkpt>
      <trkpt lat="43.24055" lon="1.1616">
        <ele>261.79998779297</ele>
        <time>2021-09-19T16:26:02.000Z</time>
      </trkpt>
      <trkpt lat="43.24056" lon="1.16162">
        <ele>261.79998779297</ele>
        <time>2021-09-19T16:26:03.000Z</time>
      </trkpt>
      <trkpt lat="43.24073" lon="1.16187">
        <ele>261</ele>
        <time>2021-09-19T16:26:12.000Z</time>
      </trkpt>
      <trkpt lat="43.24093" lon="1.16206">
        <ele>259.60000610352</ele>
        <time>2021-09-19T16:26:20.000Z</time>
      </trkpt>
      <trkpt lat="43.24112" lon="1.16223">
        <ele>257.79998779297</ele>
        <time>2021-09-19T16:26:29.000Z</time>
      </trkpt>
      <trkpt lat="43.24125" lon="1.16251">
        <ele>256.60000610352</ele>
        <time>2021-09-19T16:26:38.000Z</time>
      </trkpt>
      <trkpt lat="43.24143" lon="1.16278">
        <ele>254.19999694824</ele>
        <time>2021-09-19T16:26:46.000Z</time>
      </trkpt>
      <trkpt lat="43.24155" lon="1.16305">
        <ele>253.39999389648</ele>
        <time>2021-09-19T16:26:53.000Z</time>
      </trkpt>
      <trkpt lat="43.24155" lon="1.16313">
        <ele>253.60000610352</ele>
        <time>2021-09-19T16:26:55.000Z</time>
      </trkpt>
      <trkpt lat="43.24148" lon="1.16345">
        <ele>254.60000610352</ele>
        <time>2021-09-19T16:27:03.000Z</time>
      </trkpt>
      <trkpt lat="43.24156" lon="1.16376">
        <ele>254.80000305176</ele>
        <time>2021-09-19T16:27:11.000Z</time>
      </trkpt>
      <trkpt lat="43.24165" lon="1.16397">
        <ele>252.60000610352</ele>
        <time>2021-09-19T16:27:18.000Z</time>
      </trkpt>
      <trkpt lat="43.24168" lon="1.16397">
        <ele>252.39999389648</ele>
        <time>2021-09-19T16:27:19.000Z</time>
      </trkpt>
      <trkpt lat="43.2417" lon="1.16397">
        <ele>252.39999389648</ele>
        <time>2021-09-19T16:27:20.000Z</time>
      </trkpt>
      <trkpt lat="43.24174" lon="1.16397">
        <ele>251.80000305176</ele>
        <time>2021-09-19T16:27:21.000Z</time>
      </trkpt>
      <trkpt lat="43.24176" lon="1.16395">
        <ele>251.39999389648</ele>
        <time>2021-09-19T16:27:22.000Z</time>
      </trkpt>
      <trkpt lat="43.24178" lon="1.16392">
        <ele>251.19999694824</ele>
        <time>2021-09-19T16:27:23.000Z</time>
      </trkpt>
      <trkpt lat="43.24179" lon="1.16389">
        <ele>250.80000305176</ele>
        <time>2021-09-19T16:27:24.000Z</time>
      </trkpt>
      <trkpt lat="43.2418" lon="1.16385">
        <ele>250.39999389648</ele>
        <time>2021-09-19T16:27:25.000Z</time>
      </trkpt>
      <trkpt lat="43.24181" lon="1.16382">
        <ele>250.19999694824</ele>
        <time>2021-09-19T16:27:26.000Z</time>
      </trkpt>
      <trkpt lat="43.24181" lon="1.16378">
        <ele>250</ele>
        <time>2021-09-19T16:27:27.000Z</time>
      </trkpt>
      <trkpt lat="43.24183" lon="1.16374">
        <ele>249.80000305176</ele>
        <time>2021-09-19T16:27:28.000Z</time>
      </trkpt>
      <trkpt lat="43.24183" lon="1.1637">
        <ele>250.19999694824</ele>
        <time>2021-09-19T16:27:29.000Z</time>
      </trkpt>
      <trkpt lat="43.24202" lon="1.16357">
        <ele>250.60000610352</ele>
        <time>2021-09-19T16:27:36.000Z</time>
      </trkpt>
      <trkpt lat="43.24225" lon="1.16359">
        <ele>251.19999694824</ele>
        <time>2021-09-19T16:27:43.000Z</time>
      </trkpt>
      <trkpt lat="43.2425" lon="1.16375">
        <ele>252</ele>
        <time>2021-09-19T16:27:51.000Z</time>
      </trkpt>
      <trkpt lat="43.24272" lon="1.16395">
        <ele>253</ele>
        <time>2021-09-19T16:27:58.000Z</time>
      </trkpt>
      <trkpt lat="43.24291" lon="1.16413">
        <ele>253.19999694824</ele>
        <time>2021-09-19T16:28:05.000Z</time>
      </trkpt>
      <trkpt lat="43.24313" lon="1.16432">
        <ele>253.80000305176</ele>
        <time>2021-09-19T16:28:12.000Z</time>
      </trkpt>
      <trkpt lat="43.24334" lon="1.16449">
        <ele>254</ele>
        <time>2021-09-19T16:28:19.000Z</time>
      </trkpt>
      <trkpt lat="43.2435" lon="1.16473">
        <ele>254</ele>
        <time>2021-09-19T16:28:26.000Z</time>
      </trkpt>
      <trkpt lat="43.24362" lon="1.16499">
        <ele>255</ele>
        <time>2021-09-19T16:28:33.000Z</time>
      </trkpt>
      <trkpt lat="43.24379" lon="1.16522">
        <ele>255.19999694824</ele>
        <time>2021-09-19T16:28:41.000Z</time>
      </trkpt>
      <trkpt lat="43.244" lon="1.16535">
        <ele>257.39999389648</ele>
        <time>2021-09-19T16:28:49.000Z</time>
      </trkpt>
      <trkpt lat="43.24423" lon="1.16546">
        <ele>259.20001220703</ele>
        <time>2021-09-19T16:28:58.000Z</time>
      </trkpt>
      <trkpt lat="43.24438" lon="1.16553">
        <ele>261.60000610352</ele>
        <time>2021-09-19T16:29:04.000Z</time>
      </trkpt>
      <trkpt lat="43.24461" lon="1.16564">
        <ele>263.60000610352</ele>
        <time>2021-09-19T16:29:14.000Z</time>
      </trkpt>
      <trkpt lat="43.24483" lon="1.16577">
        <ele>264.39999389648</ele>
        <time>2021-09-19T16:29:22.000Z</time>
      </trkpt>
      <trkpt lat="43.24502" lon="1.16599">
        <ele>264.39999389648</ele>
        <time>2021-09-19T16:29:31.000Z</time>
      </trkpt>
      <trkpt lat="43.24519" lon="1.16629">
        <ele>264.20001220703</ele>
        <time>2021-09-19T16:29:39.000Z</time>
      </trkpt>
      <trkpt lat="43.24529" lon="1.16654">
        <ele>263.79998779297</ele>
        <time>2021-09-19T16:29:45.000Z</time>
      </trkpt>
      <trkpt lat="43.24531" lon="1.16657">
        <ele>264</ele>
        <time>2021-09-19T16:29:46.000Z</time>
      </trkpt>
      <trkpt lat="43.24549" lon="1.16681">
        <ele>264.20001220703</ele>
        <time>2021-09-19T16:29:53.000Z</time>
      </trkpt>
      <trkpt lat="43.24565" lon="1.16706">
        <ele>263.60000610352</ele>
        <time>2021-09-19T16:30:01.000Z</time>
      </trkpt>
      <trkpt lat="43.24582" lon="1.16729">
        <ele>263</ele>
        <time>2021-09-19T16:30:08.000Z</time>
      </trkpt>
      <trkpt lat="43.24599" lon="1.16756">
        <ele>262</ele>
        <time>2021-09-19T16:30:15.000Z</time>
      </trkpt>
      <trkpt lat="43.24615" lon="1.16777">
        <ele>261.60000610352</ele>
        <time>2021-09-19T16:30:21.000Z</time>
      </trkpt>
      <trkpt lat="43.24633" lon="1.16793">
        <ele>260.60000610352</ele>
        <time>2021-09-19T16:30:27.000Z</time>
      </trkpt>
      <trkpt lat="43.24649" lon="1.16811">
        <ele>260</ele>
        <time>2021-09-19T16:30:34.000Z</time>
      </trkpt>
      <trkpt lat="43.24663" lon="1.16833">
        <ele>260.39999389648</ele>
        <time>2021-09-19T16:30:41.000Z</time>
      </trkpt>
      <trkpt lat="43.2468" lon="1.16854">
        <ele>258.60000610352</ele>
        <time>2021-09-19T16:30:48.000Z</time>
      </trkpt>
      <trkpt lat="43.24697" lon="1.16876">
        <ele>257.60000610352</ele>
        <time>2021-09-19T16:30:55.000Z</time>
      </trkpt>
      <trkpt lat="43.24702" lon="1.16881">
        <ele>257.20001220703</ele>
        <time>2021-09-19T16:30:57.000Z</time>
      </trkpt>
      <trkpt lat="43.24719" lon="1.16897">
        <ele>257.79998779297</ele>
        <time>2021-09-19T16:31:03.000Z</time>
      </trkpt>
      <trkpt lat="43.24736" lon="1.16919">
        <ele>259</ele>
        <time>2021-09-19T16:31:10.000Z</time>
      </trkpt>
      <trkpt lat="43.24753" lon="1.16938">
        <ele>261.20001220703</ele>
        <time>2021-09-19T16:31:18.000Z</time>
      </trkpt>
      <trkpt lat="43.24773" lon="1.16954">
        <ele>261.79998779297</ele>
        <time>2021-09-19T16:31:26.000Z</time>
      </trkpt>
      <trkpt lat="43.2479" lon="1.16971">
        <ele>261</ele>
        <time>2021-09-19T16:31:33.000Z</time>
      </trkpt>
      <trkpt lat="43.24811" lon="1.16972">
        <ele>259.79998779297</ele>
        <time>2021-09-19T16:31:40.000Z</time>
      </trkpt>
      <trkpt lat="43.24833" lon="1.16976">
        <ele>259.20001220703</ele>
        <time>2021-09-19T16:31:47.000Z</time>
      </trkpt>
      <trkpt lat="43.24853" lon="1.16983">
        <ele>259.39999389648</ele>
        <time>2021-09-19T16:31:54.000Z</time>
      </trkpt>
      <trkpt lat="43.24869" lon="1.17001">
        <ele>260</ele>
        <time>2021-09-19T16:32:01.000Z</time>
      </trkpt>
      <trkpt lat="43.2488" lon="1.17027">
        <ele>260</ele>
        <time>2021-09-19T16:32:08.000Z</time>
      </trkpt>
      <trkpt lat="43.24898" lon="1.17054">
        <ele>259.60000610352</ele>
        <time>2021-09-19T16:32:16.000Z</time>
      </trkpt>
      <trkpt lat="43.24918" lon="1.17077">
        <ele>259.39999389648</ele>
        <time>2021-09-19T16:32:23.000Z</time>
      </trkpt>
      <trkpt lat="43.24932" lon="1.17098">
        <ele>258.60000610352</ele>
        <time>2021-09-19T16:32:30.000Z</time>
      </trkpt>
      <trkpt lat="43.24947" lon="1.17121">
        <ele>257</ele>
        <time>2021-09-19T16:32:37.000Z</time>
      </trkpt>
      <trkpt lat="43.24963" lon="1.17142">
        <ele>256.79998779297</ele>
        <time>2021-09-19T16:32:44.000Z</time>
      </trkpt>
      <trkpt lat="43.24975" lon="1.17157">
        <ele>256</ele>
        <time>2021-09-19T16:32:49.000Z</time>
      </trkpt>
      <trkpt lat="43.24976" lon="1.1716">
        <ele>255.80000305176</ele>
        <time>2021-09-19T16:32:50.000Z</time>
      </trkpt>
      <trkpt lat="43.24977" lon="1.17163">
        <ele>255.80000305176</ele>
        <time>2021-09-19T16:32:51.000Z</time>
      </trkpt>
      <trkpt lat="43.24978" lon="1.17167">
        <ele>256</ele>
        <time>2021-09-19T16:32:52.000Z</time>
      </trkpt>
      <trkpt lat="43.24979" lon="1.17171">
        <ele>255.80000305176</ele>
        <time>2021-09-19T16:32:53.000Z</time>
      </trkpt>
      <trkpt lat="43.2498" lon="1.17175">
        <ele>255.80000305176</ele>
        <time>2021-09-19T16:32:54.000Z</time>
      </trkpt>
      <trkpt lat="43.24976" lon="1.17208">
        <ele>253.80000305176</ele>
        <time>2021-09-19T16:33:01.000Z</time>
      </trkpt>
      <trkpt lat="43.24984" lon="1.17237">
        <ele>251.80000305176</ele>
        <time>2021-09-19T16:33:08.000Z</time>
      </trkpt>
      <trkpt lat="43.24997" lon="1.17265">
        <ele>249.80000305176</ele>
        <time>2021-09-19T16:33:15.000Z</time>
      </trkpt>
      <trkpt lat="43.2501" lon="1.17289">
        <ele>248.19999694824</ele>
        <time>2021-09-19T16:33:21.000Z</time>
      </trkpt>
      <trkpt lat="43.25022" lon="1.17316">
        <ele>246.19999694824</ele>
        <time>2021-09-19T16:33:28.000Z</time>
      </trkpt>
      <trkpt lat="43.25036" lon="1.17335">
        <ele>244.80000305176</ele>
        <time>2021-09-19T16:33:35.000Z</time>
      </trkpt>
      <trkpt lat="43.25054" lon="1.17357">
        <ele>243.60000610352</ele>
        <time>2021-09-19T16:33:43.000Z</time>
      </trkpt>
      <trkpt lat="43.25071" lon="1.17374">
        <ele>242.60000610352</ele>
        <time>2021-09-19T16:33:50.000Z</time>
      </trkpt>
      <trkpt lat="43.25091" lon="1.17398">
        <ele>241.19999694824</ele>
        <time>2021-09-19T16:33:57.000Z</time>
      </trkpt>
      <trkpt lat="43.25111" lon="1.17416">
        <ele>240.60000610352</ele>
        <time>2021-09-19T16:34:03.000Z</time>
      </trkpt>
      <trkpt lat="43.2513" lon="1.17435">
        <ele>240.60000610352</ele>
        <time>2021-09-19T16:34:09.000Z</time>
      </trkpt>
      <trkpt lat="43.25149" lon="1.17453">
        <ele>239.19999694824</ele>
        <time>2021-09-19T16:34:15.000Z</time>
      </trkpt>
      <trkpt lat="43.25168" lon="1.17468">
        <ele>238.80000305176</ele>
        <time>2021-09-19T16:34:21.000Z</time>
      </trkpt>
      <trkpt lat="43.25182" lon="1.17481">
        <ele>238.80000305176</ele>
        <time>2021-09-19T16:34:26.000Z</time>
      </trkpt>
      <trkpt lat="43.25186" lon="1.17483">
        <ele>238.60000610352</ele>
        <time>2021-09-19T16:34:27.000Z</time>
      </trkpt>
      <trkpt lat="43.25189" lon="1.17486">
        <ele>238.60000610352</ele>
        <time>2021-09-19T16:34:28.000Z</time>
      </trkpt>
      <trkpt lat="43.25192" lon="1.17488">
        <ele>238.60000610352</ele>
        <time>2021-09-19T16:34:29.000Z</time>
      </trkpt>
      <trkpt lat="43.25195" lon="1.17491">
        <ele>238.60000610352</ele>
        <time>2021-09-19T16:34:30.000Z</time>
      </trkpt>
      <trkpt lat="43.25198" lon="1.17494">
        <ele>238.60000610352</ele>
        <time>2021-09-19T16:34:31.000Z</time>
      </trkpt>
      <trkpt lat="43.25201" lon="1.17497">
        <ele>238.60000610352</ele>
        <time>2021-09-19T16:34:32.000Z</time>
      </trkpt>
      <trkpt lat="43.25216" lon="1.17514">
        <ele>238</ele>
        <time>2021-09-19T16:34:38.000Z</time>
      </trkpt>
      <trkpt lat="43.25232" lon="1.17527">
        <ele>237.60000610352</ele>
        <time>2021-09-19T16:34:44.000Z</time>
      </trkpt>
      <trkpt lat="43.25248" lon="1.1754">
        <ele>237.60000610352</ele>
        <time>2021-09-19T16:34:50.000Z</time>
      </trkpt>
      <trkpt lat="43.25265" lon="1.17555">
        <ele>237.60000610352</ele>
        <time>2021-09-19T16:34:56.000Z</time>
      </trkpt>
      <trkpt lat="43.25281" lon="1.17575">
        <ele>237.80000305176</ele>
        <time>2021-09-19T16:35:02.000Z</time>
      </trkpt>
      <trkpt lat="43.25293" lon="1.17597">
        <ele>237</ele>
        <time>2021-09-19T16:35:08.000Z</time>
      </trkpt>
      <trkpt lat="43.25304" lon="1.17624">
        <ele>237</ele>
        <time>2021-09-19T16:35:15.000Z</time>
      </trkpt>
      <trkpt lat="43.25317" lon="1.17651">
        <ele>236.80000305176</ele>
        <time>2021-09-19T16:35:22.000Z</time>
      </trkpt>
      <trkpt lat="43.25331" lon="1.17675">
        <ele>236.39999389648</ele>
        <time>2021-09-19T16:35:29.000Z</time>
      </trkpt>
      <trkpt lat="43.25343" lon="1.17701">
        <ele>235.60000610352</ele>
        <time>2021-09-19T16:35:36.000Z</time>
      </trkpt>
      <trkpt lat="43.25357" lon="1.17724">
        <ele>235.39999389648</ele>
        <time>2021-09-19T16:35:43.000Z</time>
      </trkpt>
      <trkpt lat="43.2537" lon="1.17748">
        <ele>235.19999694824</ele>
        <time>2021-09-19T16:35:50.000Z</time>
      </trkpt>
      <trkpt lat="43.25384" lon="1.17773">
        <ele>234.80000305176</ele>
        <time>2021-09-19T16:35:57.000Z</time>
      </trkpt>
      <trkpt lat="43.25395" lon="1.17797">
        <ele>234.19999694824</ele>
        <time>2021-09-19T16:36:03.000Z</time>
      </trkpt>
      <trkpt lat="43.25408" lon="1.1782">
        <ele>233.39999389648</ele>
        <time>2021-09-19T16:36:09.000Z</time>
      </trkpt>
      <trkpt lat="43.25422" lon="1.17841">
        <ele>233.60000610352</ele>
        <time>2021-09-19T16:36:15.000Z</time>
      </trkpt>
      <trkpt lat="43.25435" lon="1.17864">
        <ele>233</ele>
        <time>2021-09-19T16:36:21.000Z</time>
      </trkpt>
      <trkpt lat="43.25449" lon="1.17886">
        <ele>233</ele>
        <time>2021-09-19T16:36:27.000Z</time>
      </trkpt>
      <trkpt lat="43.25462" lon="1.17908">
        <ele>233.19999694824</ele>
        <time>2021-09-19T16:36:33.000Z</time>
      </trkpt>
      <trkpt lat="43.25475" lon="1.17929">
        <ele>233</ele>
        <time>2021-09-19T16:36:39.000Z</time>
      </trkpt>
      <trkpt lat="43.25489" lon="1.17952">
        <ele>232.80000305176</ele>
        <time>2021-09-19T16:36:46.000Z</time>
      </trkpt>
      <trkpt lat="43.25503" lon="1.17976">
        <ele>232.80000305176</ele>
        <time>2021-09-19T16:36:53.000Z</time>
      </trkpt>
      <trkpt lat="43.25516" lon="1.17998">
        <ele>232</ele>
        <time>2021-09-19T16:36:59.000Z</time>
      </trkpt>
      <trkpt lat="43.2553" lon="1.18025">
        <ele>232.19999694824</ele>
        <time>2021-09-19T16:37:06.000Z</time>
      </trkpt>
      <trkpt lat="43.25545" lon="1.18049">
        <ele>231.60000610352</ele>
        <time>2021-09-19T16:37:13.000Z</time>
      </trkpt>
      <trkpt lat="43.25559" lon="1.18071">
        <ele>231.19999694824</ele>
        <time>2021-09-19T16:37:19.000Z</time>
      </trkpt>
      <trkpt lat="43.25573" lon="1.18092">
        <ele>231.19999694824</ele>
        <time>2021-09-19T16:37:25.000Z</time>
      </trkpt>
      <trkpt lat="43.25587" lon="1.18112">
        <ele>230.80000305176</ele>
        <time>2021-09-19T16:37:31.000Z</time>
      </trkpt>
      <trkpt lat="43.25604" lon="1.18129">
        <ele>230.80000305176</ele>
        <time>2021-09-19T16:37:37.000Z</time>
      </trkpt>
      <trkpt lat="43.25624" lon="1.18143">
        <ele>230.39999389648</ele>
        <time>2021-09-19T16:37:43.000Z</time>
      </trkpt>
      <trkpt lat="43.25644" lon="1.18154">
        <ele>230.39999389648</ele>
        <time>2021-09-19T16:37:49.000Z</time>
      </trkpt>
      <trkpt lat="43.25665" lon="1.18163">
        <ele>230</ele>
        <time>2021-09-19T16:37:55.000Z</time>
      </trkpt>
      <trkpt lat="43.25684" lon="1.18172">
        <ele>229.39999389648</ele>
        <time>2021-09-19T16:38:01.000Z</time>
      </trkpt>
      <trkpt lat="43.257" lon="1.18191">
        <ele>229</ele>
        <time>2021-09-19T16:38:07.000Z</time>
      </trkpt>
      <trkpt lat="43.25706" lon="1.18207">
        <ele>228.60000610352</ele>
        <time>2021-09-19T16:38:13.000Z</time>
      </trkpt>
      <trkpt lat="43.25706" lon="1.18209">
        <ele>228.60000610352</ele>
        <time>2021-09-19T16:38:14.000Z</time>
      </trkpt>
      <trkpt lat="43.25705" lon="1.1821">
        <ele>228.60000610352</ele>
        <time>2021-09-19T16:38:15.000Z</time>
      </trkpt>
      <trkpt lat="43.25705" lon="1.18213">
        <ele>228.60000610352</ele>
        <time>2021-09-19T16:38:16.000Z</time>
      </trkpt>
      <trkpt lat="43.25706" lon="1.18216">
        <ele>228.39999389648</ele>
        <time>2021-09-19T16:38:17.000Z</time>
      </trkpt>
      <trkpt lat="43.25706" lon="1.18219">
        <ele>228.19999694824</ele>
        <time>2021-09-19T16:38:18.000Z</time>
      </trkpt>
      <trkpt lat="43.25705" lon="1.18222">
        <ele>228.19999694824</ele>
        <time>2021-09-19T16:38:19.000Z</time>
      </trkpt>
      <trkpt lat="43.25705" lon="1.18226">
        <ele>228.19999694824</ele>
        <time>2021-09-19T16:38:20.000Z</time>
      </trkpt>
      <trkpt lat="43.25705" lon="1.1823">
        <ele>228.39999389648</ele>
        <time>2021-09-19T16:38:21.000Z</time>
      </trkpt>
      <trkpt lat="43.25705" lon="1.18234">
        <ele>228.39999389648</ele>
        <time>2021-09-19T16:38:22.000Z</time>
      </trkpt>
      <trkpt lat="43.25705" lon="1.18238">
        <ele>228.39999389648</ele>
        <time>2021-09-19T16:38:23.000Z</time>
      </trkpt>
      <trkpt lat="43.25707" lon="1.18269">
        <ele>228.39999389648</ele>
        <time>2021-09-19T16:38:30.000Z</time>
      </trkpt>
      <trkpt lat="43.25707" lon="1.18298">
        <ele>228.39999389648</ele>
        <time>2021-09-19T16:38:36.000Z</time>
      </trkpt>
      <trkpt lat="43.25708" lon="1.18328">
        <ele>228.19999694824</ele>
        <time>2021-09-19T16:38:43.000Z</time>
      </trkpt>
      <trkpt lat="43.25708" lon="1.18359">
        <ele>227.60000610352</ele>
        <time>2021-09-19T16:38:50.000Z</time>
      </trkpt>
      <trkpt lat="43.25711" lon="1.18388">
        <ele>227.39999389648</ele>
        <time>2021-09-19T16:38:56.000Z</time>
      </trkpt>
      <trkpt lat="43.25714" lon="1.18418">
        <ele>227.19999694824</ele>
        <time>2021-09-19T16:39:03.000Z</time>
      </trkpt>
      <trkpt lat="43.25719" lon="1.18445">
        <ele>227</ele>
        <time>2021-09-19T16:39:09.000Z</time>
      </trkpt>
      <trkpt lat="43.25726" lon="1.1847">
        <ele>227.39999389648</ele>
        <time>2021-09-19T16:39:15.000Z</time>
      </trkpt>
      <trkpt lat="43.25734" lon="1.18497">
        <ele>227</ele>
        <time>2021-09-19T16:39:21.000Z</time>
      </trkpt>
      <trkpt lat="43.25742" lon="1.18527">
        <ele>226.39999389648</ele>
        <time>2021-09-19T16:39:28.000Z</time>
      </trkpt>
      <trkpt lat="43.25749" lon="1.18555">
        <ele>226.39999389648</ele>
        <time>2021-09-19T16:39:35.000Z</time>
      </trkpt>
      <trkpt lat="43.25755" lon="1.18584">
        <ele>226.19999694824</ele>
        <time>2021-09-19T16:39:42.000Z</time>
      </trkpt>
      <trkpt lat="43.25759" lon="1.18611">
        <ele>226.19999694824</ele>
        <time>2021-09-19T16:39:49.000Z</time>
      </trkpt>
      <trkpt lat="43.2576" lon="1.18642">
        <ele>225.80000305176</ele>
        <time>2021-09-19T16:39:56.000Z</time>
      </trkpt>
      <trkpt lat="43.25764" lon="1.18672">
        <ele>225.39999389648</ele>
        <time>2021-09-19T16:40:02.000Z</time>
      </trkpt>
      <trkpt lat="43.25764" lon="1.18677">
        <ele>225.39999389648</ele>
        <time>2021-09-19T16:40:03.000Z</time>
      </trkpt>
      <trkpt lat="43.25765" lon="1.18703">
        <ele>224.60000610352</ele>
        <time>2021-09-19T16:40:09.000Z</time>
      </trkpt>
      <trkpt lat="43.25766" lon="1.18731">
        <ele>224.19999694824</ele>
        <time>2021-09-19T16:40:16.000Z</time>
      </trkpt>
      <trkpt lat="43.2577" lon="1.18761">
        <ele>223.80000305176</ele>
        <time>2021-09-19T16:40:23.000Z</time>
      </trkpt>
      <trkpt lat="43.25771" lon="1.1879">
        <ele>223.60000610352</ele>
        <time>2021-09-19T16:40:30.000Z</time>
      </trkpt>
      <trkpt lat="43.25775" lon="1.18817">
        <ele>223.19999694824</ele>
        <time>2021-09-19T16:40:36.000Z</time>
      </trkpt>
      <trkpt lat="43.25778" lon="1.18844">
        <ele>223</ele>
        <time>2021-09-19T16:40:42.000Z</time>
      </trkpt>
      <trkpt lat="43.25779" lon="1.18872">
        <ele>222.80000305176</ele>
        <time>2021-09-19T16:40:48.000Z</time>
      </trkpt>
      <trkpt lat="43.25786" lon="1.18902">
        <ele>222.39999389648</ele>
        <time>2021-09-19T16:40:55.000Z</time>
      </trkpt>
      <trkpt lat="43.25792" lon="1.18929">
        <ele>221.19999694824</ele>
        <time>2021-09-19T16:41:01.000Z</time>
      </trkpt>
      <trkpt lat="43.258" lon="1.18955">
        <ele>220.19999694824</ele>
        <time>2021-09-19T16:41:07.000Z</time>
      </trkpt>
      <trkpt lat="43.2581" lon="1.18983">
        <ele>218.80000305176</ele>
        <time>2021-09-19T16:41:14.000Z</time>
      </trkpt>
      <trkpt lat="43.25824" lon="1.19006">
        <ele>217.60000610352</ele>
        <time>2021-09-19T16:41:21.000Z</time>
      </trkpt>
      <trkpt lat="43.25834" lon="1.19029">
        <ele>217</ele>
        <time>2021-09-19T16:41:28.000Z</time>
      </trkpt>
      <trkpt lat="43.25838" lon="1.19049">
        <ele>217.39999389648</ele>
        <time>2021-09-19T16:41:35.000Z</time>
      </trkpt>
      <trkpt lat="43.25839" lon="1.19049">
        <ele>217.60000610352</ele>
        <time>2021-09-19T16:41:36.000Z</time>
      </trkpt>
      <trkpt lat="43.25839" lon="1.19049">
        <ele>217.80000305176</ele>
        <time>2021-09-19T16:41:37.000Z</time>
      </trkpt>
      <trkpt lat="43.2584" lon="1.19048">
        <ele>218</ele>
        <time>2021-09-19T16:41:38.000Z</time>
      </trkpt>
      <trkpt lat="43.25841" lon="1.19048">
        <ele>218.19999694824</ele>
        <time>2021-09-19T16:41:39.000Z</time>
      </trkpt>
      <trkpt lat="43.25842" lon="1.19048">
        <ele>218.39999389648</ele>
        <time>2021-09-19T16:41:40.000Z</time>
      </trkpt>
      <trkpt lat="43.25843" lon="1.19049">
        <ele>218.39999389648</ele>
        <time>2021-09-19T16:41:41.000Z</time>
      </trkpt>
      <trkpt lat="43.25844" lon="1.19049">
        <ele>218.39999389648</ele>
        <time>2021-09-19T16:41:42.000Z</time>
      </trkpt>
      <trkpt lat="43.25845" lon="1.1905">
        <ele>218.39999389648</ele>
        <time>2021-09-19T16:41:43.000Z</time>
      </trkpt>
      <trkpt lat="43.25845" lon="1.1905">
        <ele>218.39999389648</ele>
        <time>2021-09-19T16:41:44.000Z</time>
      </trkpt>
      <trkpt lat="43.2587" lon="1.1906">
        <ele>219.19999694824</ele>
        <time>2021-09-19T16:41:57.000Z</time>
      </trkpt>
      <trkpt lat="43.25896" lon="1.1906">
        <ele>220.39999389648</ele>
        <time>2021-09-19T16:42:08.000Z</time>
      </trkpt>
      <trkpt lat="43.25921" lon="1.19053">
        <ele>219.60000610352</ele>
        <time>2021-09-19T16:42:17.000Z</time>
      </trkpt>
      <trkpt lat="43.25938" lon="1.19028">
        <ele>220.19999694824</ele>
        <time>2021-09-19T16:42:26.000Z</time>
      </trkpt>
      <trkpt lat="43.25952" lon="1.19008">
        <ele>221.19999694824</ele>
        <time>2021-09-19T16:42:35.000Z</time>
      </trkpt>
      <trkpt lat="43.25953" lon="1.19007">
        <ele>221.19999694824</ele>
        <time>2021-09-19T16:42:36.000Z</time>
      </trkpt>
      <trkpt lat="43.25954" lon="1.19005">
        <ele>221.39999389648</ele>
        <time>2021-09-19T16:42:37.000Z</time>
      </trkpt>
      <trkpt lat="43.25968" lon="1.1898">
        <ele>221.80000305176</ele>
        <time>2021-09-19T16:42:48.000Z</time>
      </trkpt>
      <trkpt lat="43.25974" lon="1.18965">
        <ele>223</ele>
        <time>2021-09-19T16:42:56.000Z</time>
      </trkpt>
      <trkpt lat="43.25972" lon="1.18956">
        <ele>222.60000610352</ele>
        <time>2021-09-19T16:43:09.000Z</time>
      </trkpt>
      <trkpt lat="43.2597" lon="1.18953">
        <ele>223</ele>
        <time>2021-09-19T16:43:10.000Z</time>
      </trkpt>
      <trkpt lat="43.25969" lon="1.18951">
        <ele>223.19999694824</ele>
        <time>2021-09-19T16:43:11.000Z</time>
      </trkpt>
      <trkpt lat="43.25967" lon="1.1895">
        <ele>223.19999694824</ele>
        <time>2021-09-19T16:43:12.000Z</time>
      </trkpt>
      <trkpt lat="43.25965" lon="1.18948">
        <ele>223.39999389648</ele>
        <time>2021-09-19T16:43:13.000Z</time>
      </trkpt>
      <trkpt lat="43.25945" lon="1.18935">
        <ele>223</ele>
        <time>2021-09-19T16:43:21.000Z</time>
      </trkpt>
      <trkpt lat="43.25927" lon="1.18922">
        <ele>223.39999389648</ele>
        <time>2021-09-19T16:43:29.000Z</time>
      </trkpt>
      <trkpt lat="43.25907" lon="1.1891">
        <ele>223.19999694824</ele>
        <time>2021-09-19T16:43:41.000Z</time>
      </trkpt>
      <trkpt lat="43.25889" lon="1.18898">
        <ele>223.60000610352</ele>
        <time>2021-09-19T16:43:49.000Z</time>
      </trkpt>
      <trkpt lat="43.25869" lon="1.18884">
        <ele>223.39999389648</ele>
        <time>2021-09-19T16:43:58.000Z</time>
      </trkpt>
      <trkpt lat="43.25851" lon="1.18873">
        <ele>223.39999389648</ele>
        <time>2021-09-19T16:44:07.000Z</time>
      </trkpt>
      <trkpt lat="43.25842" lon="1.18865">
        <ele>223.39999389648</ele>
        <time>2021-09-19T16:44:14.000Z</time>
      </trkpt>
      <trkpt lat="43.25841" lon="1.18861">
        <ele>223.39999389648</ele>
        <time>2021-09-19T16:44:17.000Z</time>
      </trkpt>
      <trkpt lat="43.25825" lon="1.18848">
        <ele>223.19999694824</ele>
        <time>2021-09-19T16:44:32.000Z</time>
      </trkpt>
      <trkpt lat="43.25821" lon="1.18848">
        <ele>223</ele>
        <time>2021-09-19T16:44:37.000Z</time>
      </trkpt>
      <trkpt lat="43.2582" lon="1.18849">
        <ele>223</ele>
        <time>2021-09-19T16:44:38.000Z</time>
      </trkpt>
      <trkpt lat="43.25819" lon="1.18848">
        <ele>222.80000305176</ele>
        <time>2021-09-19T16:44:47.000Z</time>
      </trkpt>
      <trkpt lat="43.2582" lon="1.18845">
        <ele>222.60000610352</ele>
        <time>2021-09-19T16:44:49.000Z</time>
      </trkpt>
      <trkpt lat="43.25818" lon="1.18843">
        <ele>222.60000610352</ele>
        <time>2021-09-19T16:44:50.000Z</time>
      </trkpt>
      <trkpt lat="43.25817" lon="1.1884">
        <ele>222.60000610352</ele>
        <time>2021-09-19T16:44:51.000Z</time>
      </trkpt>
      <trkpt lat="43.25815" lon="1.18837">
        <ele>222.39999389648</ele>
        <time>2021-09-19T16:44:52.000Z</time>
      </trkpt>
      <trkpt lat="43.25815" lon="1.18834">
        <ele>222.39999389648</ele>
        <time>2021-09-19T16:44:53.000Z</time>
      </trkpt>
      <trkpt lat="43.25816" lon="1.1883">
        <ele>222.60000610352</ele>
        <time>2021-09-19T16:44:54.000Z</time>
      </trkpt>
      <trkpt lat="43.25817" lon="1.18827">
        <ele>222.39999389648</ele>
        <time>2021-09-19T16:44:55.000Z</time>
      </trkpt>
      <trkpt lat="43.25818" lon="1.18823">
        <ele>222.39999389648</ele>
        <time>2021-09-19T16:44:56.000Z</time>
      </trkpt>
      <trkpt lat="43.2582" lon="1.1882">
        <ele>222.60000610352</ele>
        <time>2021-09-19T16:44:57.000Z</time>
      </trkpt>
      <trkpt lat="43.25822" lon="1.18816">
        <ele>222.60000610352</ele>
        <time>2021-09-19T16:44:58.000Z</time>
      </trkpt>
      <trkpt lat="43.25831" lon="1.18795">
        <ele>223</ele>
        <time>2021-09-19T16:45:05.000Z</time>
      </trkpt>
      <trkpt lat="43.25835" lon="1.18794">
        <ele>223</ele>
        <time>2021-09-19T16:45:06.000Z</time>
      </trkpt>
      <trkpt lat="43.25838" lon="1.18794">
        <ele>223.19999694824</ele>
        <time>2021-09-19T16:45:07.000Z</time>
      </trkpt>
      <trkpt lat="43.25841" lon="1.18794">
        <ele>223.39999389648</ele>
        <time>2021-09-19T16:45:08.000Z</time>
      </trkpt>
      <trkpt lat="43.25844" lon="1.18794">
        <ele>223.39999389648</ele>
        <time>2021-09-19T16:45:09.000Z</time>
      </trkpt>
      <trkpt lat="43.25846" lon="1.18793">
        <ele>223.60000610352</ele>
        <time>2021-09-19T16:45:10.000Z</time>
      </trkpt>
      <trkpt lat="43.25849" lon="1.18794">
        <ele>223.60000610352</ele>
        <time>2021-09-19T16:45:11.000Z</time>
      </trkpt>
      <trkpt lat="43.25852" lon="1.18794">
        <ele>223.39999389648</ele>
        <time>2021-09-19T16:45:12.000Z</time>
      </trkpt>
      <trkpt lat="43.25854" lon="1.18793">
        <ele>223.39999389648</ele>
        <time>2021-09-19T16:45:13.000Z</time>
      </trkpt>
      <trkpt lat="43.25876" lon="1.18797">
        <ele>224</ele>
        <time>2021-09-19T16:45:21.000Z</time>
      </trkpt>
      <trkpt lat="43.25896" lon="1.18798">
        <ele>224</ele>
        <time>2021-09-19T16:45:28.000Z</time>
      </trkpt>
      <trkpt lat="43.25902" lon="1.18799">
        <ele>224</ele>
        <time>2021-09-19T16:45:31.000Z</time>
      </trkpt>
      <trkpt lat="43.25905" lon="1.18798">
        <ele>224</ele>
        <time>2021-09-19T16:45:32.000Z</time>
      </trkpt>
      <trkpt lat="43.25907" lon="1.18797">
        <ele>224.19999694824</ele>
        <time>2021-09-19T16:45:33.000Z</time>
      </trkpt>
      <trkpt lat="43.2592" lon="1.18776">
        <ele>224</ele>
        <time>2021-09-19T16:45:41.000Z</time>
      </trkpt>
      <trkpt lat="43.25928" lon="1.18749">
        <ele>223.60000610352</ele>
        <time>2021-09-19T16:45:49.000Z</time>
      </trkpt>
      <trkpt lat="43.25933" lon="1.18721">
        <ele>224.19999694824</ele>
        <time>2021-09-19T16:45:56.000Z</time>
      </trkpt>
      <trkpt lat="43.25938" lon="1.18693">
        <ele>224.60000610352</ele>
        <time>2021-09-19T16:46:03.000Z</time>
      </trkpt>
      <trkpt lat="43.2594" lon="1.18665">
        <ele>226</ele>
        <time>2021-09-19T16:46:10.000Z</time>
      </trkpt>
      <trkpt lat="43.25933" lon="1.18636">
        <ele>226.19999694824</ele>
        <time>2021-09-19T16:46:17.000Z</time>
      </trkpt>
      <trkpt lat="43.25934" lon="1.18605">
        <ele>226</ele>
        <time>2021-09-19T16:46:25.000Z</time>
      </trkpt>
      <trkpt lat="43.25938" lon="1.18577">
        <ele>226.60000610352</ele>
        <time>2021-09-19T16:46:33.000Z</time>
      </trkpt>
      <trkpt lat="43.25945" lon="1.18551">
        <ele>227</ele>
        <time>2021-09-19T16:46:41.000Z</time>
      </trkpt>
      <trkpt lat="43.25963" lon="1.18546">
        <ele>227.60000610352</ele>
        <time>2021-09-19T16:46:51.000Z</time>
      </trkpt>
      <trkpt lat="43.25983" lon="1.18554">
        <ele>226.60000610352</ele>
        <time>2021-09-19T16:47:01.000Z</time>
      </trkpt>
      <trkpt lat="43.26004" lon="1.18564">
        <ele>226.39999389648</ele>
        <time>2021-09-19T16:47:11.000Z</time>
      </trkpt>
      <trkpt lat="43.26024" lon="1.18576">
        <ele>226.19999694824</ele>
        <time>2021-09-19T16:47:22.000Z</time>
      </trkpt>
      <trkpt lat="43.26045" lon="1.18586">
        <ele>226</ele>
        <time>2021-09-19T16:47:31.000Z</time>
      </trkpt>
      <trkpt lat="43.26066" lon="1.18595">
        <ele>225.80000305176</ele>
        <time>2021-09-19T16:47:40.000Z</time>
      </trkpt>
      <trkpt lat="43.26087" lon="1.18606">
        <ele>225</ele>
        <time>2021-09-19T16:47:51.000Z</time>
      </trkpt>
      <trkpt lat="43.26099" lon="1.18613">
        <ele>225.19999694824</ele>
        <time>2021-09-19T16:47:59.000Z</time>
      </trkpt>
      <trkpt lat="43.261" lon="1.18611">
        <ele>225</ele>
        <time>2021-09-19T16:48:00.000Z</time>
      </trkpt>
      <trkpt lat="43.26106" lon="1.18588">
        <ele>225.60000610352</ele>
        <time>2021-09-19T16:48:10.000Z</time>
      </trkpt>
      <trkpt lat="43.26105" lon="1.18586">
        <ele>225.60000610352</ele>
        <time>2021-09-19T16:48:11.000Z</time>
      </trkpt>
      <trkpt lat="43.26104" lon="1.18585">
        <ele>225.60000610352</ele>
        <time>2021-09-19T16:48:12.000Z</time>
      </trkpt>
      <trkpt lat="43.26101" lon="1.18578">
        <ele>225.80000305176</ele>
        <time>2021-09-19T16:48:24.000Z</time>
      </trkpt>
      <trkpt lat="43.26091" lon="1.18553">
        <ele>226.39999389648</ele>
        <time>2021-09-19T16:48:30.000Z</time>
      </trkpt>
      <trkpt lat="43.26091" lon="1.18524">
        <ele>226</ele>
        <time>2021-09-19T16:48:37.000Z</time>
      </trkpt>
      <trkpt lat="43.26098" lon="1.18495">
        <ele>226.19999694824</ele>
        <time>2021-09-19T16:48:45.000Z</time>
      </trkpt>
      <trkpt lat="43.26105" lon="1.18468">
        <ele>226.19999694824</ele>
        <time>2021-09-19T16:48:52.000Z</time>
      </trkpt>
      <trkpt lat="43.26113" lon="1.18441">
        <ele>226.80000305176</ele>
        <time>2021-09-19T16:48:59.000Z</time>
      </trkpt>
      <trkpt lat="43.26121" lon="1.18416">
        <ele>226.60000610352</ele>
        <time>2021-09-19T16:49:06.000Z</time>
      </trkpt>
      <trkpt lat="43.26129" lon="1.18388">
        <ele>227.19999694824</ele>
        <time>2021-09-19T16:49:14.000Z</time>
      </trkpt>
      <trkpt lat="43.26132" lon="1.1836">
        <ele>227.39999389648</ele>
        <time>2021-09-19T16:49:22.000Z</time>
      </trkpt>
      <trkpt lat="43.26133" lon="1.18356">
        <ele>227.60000610352</ele>
        <time>2021-09-19T16:49:23.000Z</time>
      </trkpt>
      <trkpt lat="43.2614" lon="1.18329">
        <ele>228</ele>
        <time>2021-09-19T16:49:30.000Z</time>
      </trkpt>
      <trkpt lat="43.26151" lon="1.18303">
        <ele>228.60000610352</ele>
        <time>2021-09-19T16:49:37.000Z</time>
      </trkpt>
      <trkpt lat="43.26158" lon="1.18276">
        <ele>228.19999694824</ele>
        <time>2021-09-19T16:49:44.000Z</time>
      </trkpt>
      <trkpt lat="43.2617" lon="1.18253">
        <ele>229</ele>
        <time>2021-09-19T16:49:51.000Z</time>
      </trkpt>
      <trkpt lat="43.26191" lon="1.18246">
        <ele>228.80000305176</ele>
        <time>2021-09-19T16:49:59.000Z</time>
      </trkpt>
      <trkpt lat="43.26213" lon="1.18248">
        <ele>229</ele>
        <time>2021-09-19T16:50:06.000Z</time>
      </trkpt>
      <trkpt lat="43.26232" lon="1.18255">
        <ele>229</ele>
        <time>2021-09-19T16:50:17.000Z</time>
      </trkpt>
      <trkpt lat="43.26253" lon="1.18256">
        <ele>229.19999694824</ele>
        <time>2021-09-19T16:50:26.000Z</time>
      </trkpt>
      <trkpt lat="43.26273" lon="1.18278">
        <ele>229.60000610352</ele>
        <time>2021-09-19T16:50:34.000Z</time>
      </trkpt>
      <trkpt lat="43.26289" lon="1.18302">
        <ele>229.19999694824</ele>
        <time>2021-09-19T16:50:42.000Z</time>
      </trkpt>
      <trkpt lat="43.26292" lon="1.18304">
        <ele>229.19999694824</ele>
        <time>2021-09-19T16:50:44.000Z</time>
      </trkpt>
      <trkpt lat="43.26294" lon="1.18303">
        <ele>229</ele>
        <time>2021-09-19T16:50:45.000Z</time>
      </trkpt>
      <trkpt lat="43.26296" lon="1.18301">
        <ele>229</ele>
        <time>2021-09-19T16:50:46.000Z</time>
      </trkpt>
      <trkpt lat="43.26314" lon="1.18292">
        <ele>229.80000305176</ele>
        <time>2021-09-19T16:50:54.000Z</time>
      </trkpt>
      <trkpt lat="43.26317" lon="1.18293">
        <ele>230</ele>
        <time>2021-09-19T16:50:56.000Z</time>
      </trkpt>
      <trkpt lat="43.2632" lon="1.18295">
        <ele>229.60000610352</ele>
        <time>2021-09-19T16:51:24.000Z</time>
      </trkpt>
      <trkpt lat="43.26321" lon="1.18296">
        <ele>229.60000610352</ele>
        <time>2021-09-19T16:51:25.000Z</time>
      </trkpt>
      <trkpt lat="43.26322" lon="1.18298">
        <ele>229.60000610352</ele>
        <time>2021-09-19T16:51:26.000Z</time>
      </trkpt>
      <trkpt lat="43.26324" lon="1.18299">
        <ele>229.60000610352</ele>
        <time>2021-09-19T16:51:27.000Z</time>
      </trkpt>
      <trkpt lat="43.26326" lon="1.18301">
        <ele>229.60000610352</ele>
        <time>2021-09-19T16:51:28.000Z</time>
      </trkpt>
      <trkpt lat="43.26345" lon="1.18306">
        <ele>230</ele>
        <time>2021-09-19T16:51:35.000Z</time>
      </trkpt>
      <trkpt lat="43.26346" lon="1.1831">
        <ele>229.80000305176</ele>
        <time>2021-09-19T16:51:36.000Z</time>
      </trkpt>
      <trkpt lat="43.26347" lon="1.18314">
        <ele>230</ele>
        <time>2021-09-19T16:51:37.000Z</time>
      </trkpt>
      <trkpt lat="43.26344" lon="1.18342">
        <ele>229.60000610352</ele>
        <time>2021-09-19T16:51:43.000Z</time>
      </trkpt>
      <trkpt lat="43.26337" lon="1.18374">
        <ele>229.39999389648</ele>
        <time>2021-09-19T16:51:49.000Z</time>
      </trkpt>
      <trkpt lat="43.26329" lon="1.18405">
        <ele>228.60000610352</ele>
        <time>2021-09-19T16:51:55.000Z</time>
      </trkpt>
      <trkpt lat="43.26323" lon="1.18433">
        <ele>228.60000610352</ele>
        <time>2021-09-19T16:52:01.000Z</time>
      </trkpt>
      <trkpt lat="43.26315" lon="1.1846">
        <ele>228</ele>
        <time>2021-09-19T16:52:07.000Z</time>
      </trkpt>
      <trkpt lat="43.26304" lon="1.18485">
        <ele>227.80000305176</ele>
        <time>2021-09-19T16:52:13.000Z</time>
      </trkpt>
      <trkpt lat="43.2629" lon="1.18507">
        <ele>226.80000305176</ele>
        <time>2021-09-19T16:52:19.000Z</time>
      </trkpt>
      <trkpt lat="43.26278" lon="1.18522">
        <ele>227</ele>
        <time>2021-09-19T16:52:23.000Z</time>
      </trkpt>
      <trkpt lat="43.26273" lon="1.18531">
        <ele>227.39999389648</ele>
        <time>2021-09-19T16:52:25.000Z</time>
      </trkpt>
      <trkpt lat="43.26259" lon="1.18555">
        <ele>226.60000610352</ele>
        <time>2021-09-19T16:52:31.000Z</time>
      </trkpt>
      <trkpt lat="43.26246" lon="1.1858">
        <ele>226.60000610352</ele>
        <time>2021-09-19T16:52:37.000Z</time>
      </trkpt>
      <trkpt lat="43.26233" lon="1.18605">
        <ele>226.60000610352</ele>
        <time>2021-09-19T16:52:43.000Z</time>
      </trkpt>
      <trkpt lat="43.26228" lon="1.18616">
        <ele>226.39999389648</ele>
        <time>2021-09-19T16:52:47.000Z</time>
      </trkpt>
      <trkpt lat="43.26225" lon="1.18618">
        <ele>226.19999694824</ele>
        <time>2021-09-19T16:52:48.000Z</time>
      </trkpt>
      <trkpt lat="43.26222" lon="1.1862">
        <ele>226.19999694824</ele>
        <time>2021-09-19T16:52:49.000Z</time>
      </trkpt>
      <trkpt lat="43.2622" lon="1.18622">
        <ele>226</ele>
        <time>2021-09-19T16:52:50.000Z</time>
      </trkpt>
      <trkpt lat="43.26219" lon="1.18626">
        <ele>226</ele>
        <time>2021-09-19T16:52:51.000Z</time>
      </trkpt>
      <trkpt lat="43.26217" lon="1.18629">
        <ele>226.19999694824</ele>
        <time>2021-09-19T16:52:52.000Z</time>
      </trkpt>
      <trkpt lat="43.26215" lon="1.18631">
        <ele>226.19999694824</ele>
        <time>2021-09-19T16:52:53.000Z</time>
      </trkpt>
      <trkpt lat="43.26214" lon="1.18634">
        <ele>226.19999694824</ele>
        <time>2021-09-19T16:52:54.000Z</time>
      </trkpt>
      <trkpt lat="43.26214" lon="1.18637">
        <ele>226</ele>
        <time>2021-09-19T16:52:55.000Z</time>
      </trkpt>
      <trkpt lat="43.26214" lon="1.18639">
        <ele>226</ele>
        <time>2021-09-19T16:52:56.000Z</time>
      </trkpt>
      <trkpt lat="43.26216" lon="1.18641">
        <ele>225.80000305176</ele>
        <time>2021-09-19T16:52:57.000Z</time>
      </trkpt>
      <trkpt lat="43.26219" lon="1.18641">
        <ele>225.39999389648</ele>
        <time>2021-09-19T16:52:58.000Z</time>
      </trkpt>
      <trkpt lat="43.26223" lon="1.18641">
        <ele>225.39999389648</ele>
        <time>2021-09-19T16:52:59.000Z</time>
      </trkpt>
      <trkpt lat="43.26227" lon="1.18641">
        <ele>225.60000610352</ele>
        <time>2021-09-19T16:53:00.000Z</time>
      </trkpt>
      <trkpt lat="43.2623" lon="1.18639">
        <ele>225.19999694824</ele>
        <time>2021-09-19T16:53:01.000Z</time>
      </trkpt>
      <trkpt lat="43.26254" lon="1.18638">
        <ele>225.39999389648</ele>
        <time>2021-09-19T16:53:07.000Z</time>
      </trkpt>
      <trkpt lat="43.26276" lon="1.18636">
        <ele>225.80000305176</ele>
        <time>2021-09-19T16:53:14.000Z</time>
      </trkpt>
      <trkpt lat="43.26299" lon="1.18641">
        <ele>225.60000610352</ele>
        <time>2021-09-19T16:53:20.000Z</time>
      </trkpt>
      <trkpt lat="43.2632" lon="1.18651">
        <ele>225</ele>
        <time>2021-09-19T16:53:26.000Z</time>
      </trkpt>
      <trkpt lat="43.26342" lon="1.18657">
        <ele>225</ele>
        <time>2021-09-19T16:53:32.000Z</time>
      </trkpt>
      <trkpt lat="43.26363" lon="1.18659">
        <ele>225.19999694824</ele>
        <time>2021-09-19T16:53:39.000Z</time>
      </trkpt>
      <trkpt lat="43.26383" lon="1.18667">
        <ele>225.19999694824</ele>
        <time>2021-09-19T16:53:45.000Z</time>
      </trkpt>
      <trkpt lat="43.26405" lon="1.18683">
        <ele>225.60000610352</ele>
        <time>2021-09-19T16:53:51.000Z</time>
      </trkpt>
      <trkpt lat="43.26424" lon="1.18698">
        <ele>225.60000610352</ele>
        <time>2021-09-19T16:53:57.000Z</time>
      </trkpt>
      <trkpt lat="43.26442" lon="1.18716">
        <ele>225.60000610352</ele>
        <time>2021-09-19T16:54:04.000Z</time>
      </trkpt>
      <trkpt lat="43.26461" lon="1.1873">
        <ele>225</ele>
        <time>2021-09-19T16:54:10.000Z</time>
      </trkpt>
      <trkpt lat="43.26481" lon="1.18743">
        <ele>225.60000610352</ele>
        <time>2021-09-19T16:54:16.000Z</time>
      </trkpt>
      <trkpt lat="43.26495" lon="1.18758">
        <ele>225.39999389648</ele>
        <time>2021-09-19T16:54:22.000Z</time>
      </trkpt>
      <trkpt lat="43.26506" lon="1.1876">
        <ele>225.19999694824</ele>
        <time>2021-09-19T16:54:27.000Z</time>
      </trkpt>
      <trkpt lat="43.26508" lon="1.18757">
        <ele>225.39999389648</ele>
        <time>2021-09-19T16:54:28.000Z</time>
      </trkpt>
      <trkpt lat="43.26509" lon="1.18754">
        <ele>225.39999389648</ele>
        <time>2021-09-19T16:54:29.000Z</time>
      </trkpt>
      <trkpt lat="43.2651" lon="1.1875">
        <ele>225.39999389648</ele>
        <time>2021-09-19T16:54:30.000Z</time>
      </trkpt>
      <trkpt lat="43.26511" lon="1.18746">
        <ele>225.80000305176</ele>
        <time>2021-09-19T16:54:31.000Z</time>
      </trkpt>
      <trkpt lat="43.2652" lon="1.18722">
        <ele>226</ele>
        <time>2021-09-19T16:54:37.000Z</time>
      </trkpt>
      <trkpt lat="43.2653" lon="1.18698">
        <ele>226.80000305176</ele>
        <time>2021-09-19T16:54:43.000Z</time>
      </trkpt>
      <trkpt lat="43.26543" lon="1.18671">
        <ele>226</ele>
        <time>2021-09-19T16:54:50.000Z</time>
      </trkpt>
      <trkpt lat="43.26553" lon="1.18648">
        <ele>227.19999694824</ele>
        <time>2021-09-19T16:54:56.000Z</time>
      </trkpt>
      <trkpt lat="43.26563" lon="1.18623">
        <ele>227</ele>
        <time>2021-09-19T16:55:02.000Z</time>
      </trkpt>
      <trkpt lat="43.26575" lon="1.18597">
        <ele>226.19999694824</ele>
        <time>2021-09-19T16:55:08.000Z</time>
      </trkpt>
      <trkpt lat="43.26586" lon="1.18573">
        <ele>227.60000610352</ele>
        <time>2021-09-19T16:55:14.000Z</time>
      </trkpt>
      <trkpt lat="43.26596" lon="1.18548">
        <ele>227</ele>
        <time>2021-09-19T16:55:20.000Z</time>
      </trkpt>
      <trkpt lat="43.26608" lon="1.18524">
        <ele>227.80000305176</ele>
        <time>2021-09-19T16:55:26.000Z</time>
      </trkpt>
      <trkpt lat="43.26621" lon="1.18502">
        <ele>228.19999694824</ele>
        <time>2021-09-19T16:55:32.000Z</time>
      </trkpt>
      <trkpt lat="43.26633" lon="1.18479">
        <ele>228.60000610352</ele>
        <time>2021-09-19T16:55:38.000Z</time>
      </trkpt>
      <trkpt lat="43.26645" lon="1.18457">
        <ele>229</ele>
        <time>2021-09-19T16:55:44.000Z</time>
      </trkpt>
      <trkpt lat="43.26656" lon="1.18432">
        <ele>228.39999389648</ele>
        <time>2021-09-19T16:55:50.000Z</time>
      </trkpt>
      <trkpt lat="43.26667" lon="1.18408">
        <ele>230.60000610352</ele>
        <time>2021-09-19T16:55:56.000Z</time>
      </trkpt>
      <trkpt lat="43.2668" lon="1.1838">
        <ele>231.60000610352</ele>
        <time>2021-09-19T16:56:03.000Z</time>
      </trkpt>
      <trkpt lat="43.26692" lon="1.18359">
        <ele>232.60000610352</ele>
        <time>2021-09-19T16:56:09.000Z</time>
      </trkpt>
      <trkpt lat="43.26705" lon="1.18339">
        <ele>232</ele>
        <time>2021-09-19T16:56:15.000Z</time>
      </trkpt>
      <trkpt lat="43.26719" lon="1.18318">
        <ele>233.60000610352</ele>
        <time>2021-09-19T16:56:21.000Z</time>
      </trkpt>
      <trkpt lat="43.26735" lon="1.18298">
        <ele>234.19999694824</ele>
        <time>2021-09-19T16:56:28.000Z</time>
      </trkpt>
      <trkpt lat="43.26752" lon="1.18277">
        <ele>235.39999389648</ele>
        <time>2021-09-19T16:56:35.000Z</time>
      </trkpt>
      <trkpt lat="43.26769" lon="1.18261">
        <ele>236.80000305176</ele>
        <time>2021-09-19T16:56:41.000Z</time>
      </trkpt>
      <trkpt lat="43.26788" lon="1.18246">
        <ele>239</ele>
        <time>2021-09-19T16:56:48.000Z</time>
      </trkpt>
      <trkpt lat="43.26808" lon="1.18234">
        <ele>241</ele>
        <time>2021-09-19T16:56:55.000Z</time>
      </trkpt>
      <trkpt lat="43.26825" lon="1.18222">
        <ele>242.80000305176</ele>
        <time>2021-09-19T16:57:02.000Z</time>
      </trkpt>
      <trkpt lat="43.26846" lon="1.18211">
        <ele>244.19999694824</ele>
        <time>2021-09-19T16:57:09.000Z</time>
      </trkpt>
      <trkpt lat="43.26866" lon="1.18199">
        <ele>245</ele>
        <time>2021-09-19T16:57:16.000Z</time>
      </trkpt>
      <trkpt lat="43.26885" lon="1.18198">
        <ele>246</ele>
        <time>2021-09-19T16:57:28.000Z</time>
      </trkpt>
      <trkpt lat="43.26903" lon="1.18198">
        <ele>246</ele>
        <time>2021-09-19T16:57:38.000Z</time>
      </trkpt>
      <trkpt lat="43.26911" lon="1.182">
        <ele>245.80000305176</ele>
        <time>2021-09-19T16:58:25.000Z</time>
      </trkpt>
      <trkpt lat="43.26912" lon="1.18202">
        <ele>245.80000305176</ele>
        <time>2021-09-19T16:58:26.000Z</time>
      </trkpt>
      <trkpt lat="43.26913" lon="1.18203">
        <ele>246</ele>
        <time>2021-09-19T16:58:27.000Z</time>
      </trkpt>
      <trkpt lat="43.26916" lon="1.18204">
        <ele>246.19999694824</ele>
        <time>2021-09-19T16:58:28.000Z</time>
      </trkpt>
      <trkpt lat="43.26918" lon="1.18205">
        <ele>246.19999694824</ele>
        <time>2021-09-19T16:58:29.000Z</time>
      </trkpt>
      <trkpt lat="43.2692" lon="1.18204">
        <ele>246.60000610352</ele>
        <time>2021-09-19T16:58:30.000Z</time>
      </trkpt>
      <trkpt lat="43.26922" lon="1.18204">
        <ele>247</ele>
        <time>2021-09-19T16:58:31.000Z</time>
      </trkpt>
      <trkpt lat="43.26924" lon="1.18202">
        <ele>247.19999694824</ele>
        <time>2021-09-19T16:58:32.000Z</time>
      </trkpt>
      <trkpt lat="43.26926" lon="1.182">
        <ele>247.80000305176</ele>
        <time>2021-09-19T16:58:33.000Z</time>
      </trkpt>
      <trkpt lat="43.26928" lon="1.18199">
        <ele>248.19999694824</ele>
        <time>2021-09-19T16:58:34.000Z</time>
      </trkpt>
      <trkpt lat="43.26931" lon="1.18197">
        <ele>248.60000610352</ele>
        <time>2021-09-19T16:58:35.000Z</time>
      </trkpt>
      <trkpt lat="43.2695" lon="1.18182">
        <ele>250.80000305176</ele>
        <time>2021-09-19T16:58:43.000Z</time>
      </trkpt>
      <trkpt lat="43.26971" lon="1.18183">
        <ele>253</ele>
        <time>2021-09-19T16:58:51.000Z</time>
      </trkpt>
      <trkpt lat="43.26992" lon="1.18198">
        <ele>254.60000610352</ele>
        <time>2021-09-19T16:58:59.000Z</time>
      </trkpt>
      <trkpt lat="43.27004" lon="1.18222">
        <ele>254.19999694824</ele>
        <time>2021-09-19T16:59:06.000Z</time>
      </trkpt>
      <trkpt lat="43.27012" lon="1.18243">
        <ele>252.80000305176</ele>
        <time>2021-09-19T16:59:13.000Z</time>
      </trkpt>
      <trkpt lat="43.27013" lon="1.18243">
        <ele>252.60000610352</ele>
        <time>2021-09-19T16:59:14.000Z</time>
      </trkpt>
      <trkpt lat="43.27015" lon="1.18243">
        <ele>252.39999389648</ele>
        <time>2021-09-19T16:59:15.000Z</time>
      </trkpt>
      <trkpt lat="43.27016" lon="1.18242">
        <ele>251.80000305176</ele>
        <time>2021-09-19T16:59:16.000Z</time>
      </trkpt>
      <trkpt lat="43.27017" lon="1.18241">
        <ele>251.19999694824</ele>
        <time>2021-09-19T16:59:17.000Z</time>
      </trkpt>
      <trkpt lat="43.27018" lon="1.18241">
        <ele>250.60000610352</ele>
        <time>2021-09-19T16:59:18.000Z</time>
      </trkpt>
      <trkpt lat="43.27019" lon="1.1824">
        <ele>250.39999389648</ele>
        <time>2021-09-19T16:59:19.000Z</time>
      </trkpt>
      <trkpt lat="43.27023" lon="1.18233">
        <ele>247</ele>
        <time>2021-09-19T16:59:23.000Z</time>
      </trkpt>
      <trkpt lat="43.27026" lon="1.18224">
        <ele>243.80000305176</ele>
        <time>2021-09-19T16:59:27.000Z</time>
      </trkpt>
      <trkpt lat="43.27024" lon="1.18208">
        <ele>240.39999389648</ele>
        <time>2021-09-19T16:59:32.000Z</time>
      </trkpt>
      <trkpt lat="43.27026" lon="1.18198">
        <ele>239</ele>
        <time>2021-09-19T16:59:35.000Z</time>
      </trkpt>
      <trkpt lat="43.27029" lon="1.18185">
        <ele>235.60000610352</ele>
        <time>2021-09-19T16:59:40.000Z</time>
      </trkpt>
      <trkpt lat="43.2702" lon="1.18165">
        <ele>232</ele>
        <time>2021-09-19T16:59:47.000Z</time>
      </trkpt>
      <trkpt lat="43.27016" lon="1.18147">
        <ele>228.60000610352</ele>
        <time>2021-09-19T16:59:52.000Z</time>
      </trkpt>
      <trkpt lat="43.27014" lon="1.18133">
        <ele>226</ele>
        <time>2021-09-19T16:59:57.000Z</time>
      </trkpt>
      <trkpt lat="43.27015" lon="1.18133">
        <ele>225</ele>
        <time>2021-09-19T16:59:58.000Z</time>
      </trkpt>
      <trkpt lat="43.27015" lon="1.18135">
        <ele>224.39999389648</ele>
        <time>2021-09-19T16:59:59.000Z</time>
      </trkpt>
      <trkpt lat="43.27015" lon="1.18137">
        <ele>224.39999389648</ele>
        <time>2021-09-19T17:00:00.000Z</time>
      </trkpt>
      <trkpt lat="43.27015" lon="1.18139">
        <ele>224.19999694824</ele>
        <time>2021-09-19T17:00:01.000Z</time>
      </trkpt>
      <trkpt lat="43.27016" lon="1.18142">
        <ele>224.19999694824</ele>
        <time>2021-09-19T17:00:02.000Z</time>
      </trkpt>
      <trkpt lat="43.27016" lon="1.18145">
        <ele>224.19999694824</ele>
        <time>2021-09-19T17:00:03.000Z</time>
      </trkpt>
      <trkpt lat="43.2703" lon="1.18167">
        <ele>223.39999389648</ele>
        <time>2021-09-19T17:00:11.000Z</time>
      </trkpt>
      <trkpt lat="43.27042" lon="1.18172">
        <ele>220.19999694824</ele>
        <time>2021-09-19T17:00:18.000Z</time>
      </trkpt>
      <trkpt lat="43.27048" lon="1.18172">
        <ele>218</ele>
        <time>2021-09-19T17:00:26.000Z</time>
      </trkpt>
      <trkpt lat="43.27048" lon="1.18174">
        <ele>217.80000305176</ele>
        <time>2021-09-19T17:00:37.000Z</time>
      </trkpt>
      <trkpt lat="43.27048" lon="1.18175">
        <ele>217.80000305176</ele>
        <time>2021-09-19T17:00:38.000Z</time>
      </trkpt>
      <trkpt lat="43.27048" lon="1.18177">
        <ele>217.80000305176</ele>
        <time>2021-09-19T17:00:39.000Z</time>
      </trkpt>
      <trkpt lat="43.27049" lon="1.18179">
        <ele>217.60000610352</ele>
        <time>2021-09-19T17:00:40.000Z</time>
      </trkpt>
      <trkpt lat="43.2705" lon="1.18182">
        <ele>217.60000610352</ele>
        <time>2021-09-19T17:00:41.000Z</time>
      </trkpt>
      <trkpt lat="43.27051" lon="1.18185">
        <ele>217.60000610352</ele>
        <time>2021-09-19T17:00:42.000Z</time>
      </trkpt>
      <trkpt lat="43.27052" lon="1.18187">
        <ele>217</ele>
        <time>2021-09-19T17:00:43.000Z</time>
      </trkpt>
      <trkpt lat="43.27052" lon="1.1819">
        <ele>216.39999389648</ele>
        <time>2021-09-19T17:00:44.000Z</time>
      </trkpt>
      <trkpt lat="43.27053" lon="1.18193">
        <ele>215.80000305176</ele>
        <time>2021-09-19T17:00:45.000Z</time>
      </trkpt>
      <trkpt lat="43.27054" lon="1.18196">
        <ele>215.19999694824</ele>
        <time>2021-09-19T17:00:46.000Z</time>
      </trkpt>
      <trkpt lat="43.27055" lon="1.18215">
        <ele>212</ele>
        <time>2021-09-19T17:00:53.000Z</time>
      </trkpt>
      <trkpt lat="43.27055" lon="1.18218">
        <ele>210.60000610352</ele>
        <time>2021-09-19T17:00:56.000Z</time>
      </trkpt>
      <trkpt lat="43.27056" lon="1.18216">
        <ele>210.19999694824</ele>
        <time>2021-09-19T17:00:57.000Z</time>
      </trkpt>
      <trkpt lat="43.27057" lon="1.18214">
        <ele>209.60000610352</ele>
        <time>2021-09-19T17:00:58.000Z</time>
      </trkpt>
      <trkpt lat="43.27058" lon="1.1821">
        <ele>209</ele>
        <time>2021-09-19T17:00:59.000Z</time>
      </trkpt>
      <trkpt lat="43.27059" lon="1.18207">
        <ele>208.80000305176</ele>
        <time>2021-09-19T17:01:00.000Z</time>
      </trkpt>
      <trkpt lat="43.27064" lon="1.18181">
        <ele>206.39999389648</ele>
        <time>2021-09-19T17:01:07.000Z</time>
      </trkpt>
      <trkpt lat="43.27066" lon="1.18154">
        <ele>205.60000610352</ele>
        <time>2021-09-19T17:01:14.000Z</time>
      </trkpt>
      <trkpt lat="43.27068" lon="1.18121">
        <ele>205.80000305176</ele>
        <time>2021-09-19T17:01:21.000Z</time>
      </trkpt>
      <trkpt lat="43.27067" lon="1.18091">
        <ele>206.19999694824</ele>
        <time>2021-09-19T17:01:28.000Z</time>
      </trkpt>
      <trkpt lat="43.27068" lon="1.18061">
        <ele>206.39999389648</ele>
        <time>2021-09-19T17:01:35.000Z</time>
      </trkpt>
      <trkpt lat="43.27075" lon="1.18031">
        <ele>206.39999389648</ele>
        <time>2021-09-19T17:01:42.000Z</time>
      </trkpt>
      <trkpt lat="43.27085" lon="1.18005">
        <ele>206</ele>
        <time>2021-09-19T17:01:49.000Z</time>
      </trkpt>
      <trkpt lat="43.27094" lon="1.17979">
        <ele>205.39999389648</ele>
        <time>2021-09-19T17:02:00.000Z</time>
      </trkpt>
      <trkpt lat="43.27093" lon="1.17974">
        <ele>205.19999694824</ele>
        <time>2021-09-19T17:02:01.000Z</time>
      </trkpt>
      <trkpt lat="43.27091" lon="1.1797">
        <ele>205.39999389648</ele>
        <time>2021-09-19T17:02:02.000Z</time>
      </trkpt>
      <trkpt lat="43.27091" lon="1.17966">
        <ele>205.39999389648</ele>
        <time>2021-09-19T17:02:03.000Z</time>
      </trkpt>
      <trkpt lat="43.2709" lon="1.17961">
        <ele>205.39999389648</ele>
        <time>2021-09-19T17:02:04.000Z</time>
      </trkpt>
      <trkpt lat="43.27089" lon="1.17956">
        <ele>205.80000305176</ele>
        <time>2021-09-19T17:02:05.000Z</time>
      </trkpt>
      <trkpt lat="43.27086" lon="1.17926">
        <ele>205.19999694824</ele>
        <time>2021-09-19T17:02:11.000Z</time>
      </trkpt>
      <trkpt lat="43.27074" lon="1.179">
        <ele>206.19999694824</ele>
        <time>2021-09-19T17:02:17.000Z</time>
      </trkpt>
      <trkpt lat="43.27072" lon="1.17895">
        <ele>206.19999694824</ele>
        <time>2021-09-19T17:02:18.000Z</time>
      </trkpt>
      <trkpt lat="43.27071" lon="1.17889">
        <ele>205.60000610352</ele>
        <time>2021-09-19T17:02:19.000Z</time>
      </trkpt>
      <trkpt lat="43.2707" lon="1.17884">
        <ele>205.60000610352</ele>
        <time>2021-09-19T17:02:20.000Z</time>
      </trkpt>
      <trkpt lat="43.27064" lon="1.17855">
        <ele>205.80000305176</ele>
        <time>2021-09-19T17:02:27.000Z</time>
      </trkpt>
      <trkpt lat="43.27057" lon="1.17828">
        <ele>206.39999389648</ele>
        <time>2021-09-19T17:02:34.000Z</time>
      </trkpt>
      <trkpt lat="43.27051" lon="1.17811">
        <ele>206.80000305176</ele>
        <time>2021-09-19T17:02:40.000Z</time>
      </trkpt>
      <trkpt lat="43.27049" lon="1.17809">
        <ele>206.80000305176</ele>
        <time>2021-09-19T17:02:41.000Z</time>
      </trkpt>
      <trkpt lat="43.27048" lon="1.17808">
        <ele>207.60000610352</ele>
        <time>2021-09-19T17:02:42.000Z</time>
      </trkpt>
      <trkpt lat="43.27043" lon="1.17806">
        <ele>208.19999694824</ele>
        <time>2021-09-19T17:02:44.000Z</time>
      </trkpt>
      <trkpt lat="43.27024" lon="1.17789">
        <ele>209</ele>
        <time>2021-09-19T17:02:52.000Z</time>
      </trkpt>
      <trkpt lat="43.27005" lon="1.17778">
        <ele>209.80000305176</ele>
        <time>2021-09-19T17:03:00.000Z</time>
      </trkpt>
      <trkpt lat="43.26985" lon="1.17769">
        <ele>210</ele>
        <time>2021-09-19T17:03:08.000Z</time>
      </trkpt>
      <trkpt lat="43.26983" lon="1.17771">
        <ele>210.19999694824</ele>
        <time>2021-09-19T17:03:09.000Z</time>
      </trkpt>
      <trkpt lat="43.26981" lon="1.17771">
        <ele>210.39999389648</ele>
        <time>2021-09-19T17:03:10.000Z</time>
      </trkpt>
      <trkpt lat="43.26981" lon="1.17771">
        <ele>210.39999389648</ele>
        <time>2021-09-19T17:03:11.000Z</time>
      </trkpt>
      <trkpt lat="43.26973" lon="1.17778">
        <ele>210.19999694824</ele>
        <time>2021-09-19T17:03:29.000Z</time>
      </trkpt>
      <trkpt lat="43.26971" lon="1.17781">
        <ele>210.39999389648</ele>
        <time>2021-09-19T17:03:30.000Z</time>
      </trkpt>
      <trkpt lat="43.2697" lon="1.17785">
        <ele>210.60000610352</ele>
        <time>2021-09-19T17:03:31.000Z</time>
      </trkpt>
      <trkpt lat="43.26969" lon="1.1779">
        <ele>210.39999389648</ele>
        <time>2021-09-19T17:03:32.000Z</time>
      </trkpt>
      <trkpt lat="43.26969" lon="1.17794">
        <ele>210.39999389648</ele>
        <time>2021-09-19T17:03:33.000Z</time>
      </trkpt>
      <trkpt lat="43.26967" lon="1.17799">
        <ele>210.39999389648</ele>
        <time>2021-09-19T17:03:34.000Z</time>
      </trkpt>
      <trkpt lat="43.26966" lon="1.17804">
        <ele>210.19999694824</ele>
        <time>2021-09-19T17:03:35.000Z</time>
      </trkpt>
      <trkpt lat="43.26963" lon="1.17828">
        <ele>209.19999694824</ele>
        <time>2021-09-19T17:03:40.000Z</time>
      </trkpt>
      <trkpt lat="43.26961" lon="1.17837">
        <ele>209.39999389648</ele>
        <time>2021-09-19T17:03:42.000Z</time>
      </trkpt>
      <trkpt lat="43.26956" lon="1.17868">
        <ele>209.80000305176</ele>
        <time>2021-09-19T17:03:48.000Z</time>
      </trkpt>
      <trkpt lat="43.26949" lon="1.17896">
        <ele>212.19999694824</ele>
        <time>2021-09-19T17:03:55.000Z</time>
      </trkpt>
      <trkpt lat="43.26942" lon="1.17911">
        <ele>214</ele>
        <time>2021-09-19T17:04:09.000Z</time>
      </trkpt>
      <trkpt lat="43.26945" lon="1.1791">
        <ele>214</ele>
        <time>2021-09-19T17:04:15.000Z</time>
      </trkpt>
      <trkpt lat="43.26948" lon="1.17909">
        <ele>213.60000610352</ele>
        <time>2021-09-19T17:05:22.000Z</time>
      </trkpt>
      <trkpt lat="43.26946" lon="1.1791">
        <ele>213.60000610352</ele>
        <time>2021-09-19T17:05:24.000Z</time>
      </trkpt>
      <trkpt lat="43.2694" lon="1.17908">
        <ele>214.19999694824</ele>
        <time>2021-09-19T17:05:38.000Z</time>
      </trkpt>
      <trkpt lat="43.26937" lon="1.17907">
        <ele>214.60000610352</ele>
        <time>2021-09-19T17:05:39.000Z</time>
      </trkpt>
      <trkpt lat="43.26934" lon="1.17905">
        <ele>215.39999389648</ele>
        <time>2021-09-19T17:05:40.000Z</time>
      </trkpt>
      <trkpt lat="43.26931" lon="1.17904">
        <ele>215.60000610352</ele>
        <time>2021-09-19T17:05:41.000Z</time>
      </trkpt>
      <trkpt lat="43.26916" lon="1.17884">
        <ele>216.39999389648</ele>
        <time>2021-09-19T17:05:48.000Z</time>
      </trkpt>
      <trkpt lat="43.26897" lon="1.17867">
        <ele>218</ele>
        <time>2021-09-19T17:05:55.000Z</time>
      </trkpt>
      <trkpt lat="43.26892" lon="1.17862">
        <ele>218.80000305176</ele>
        <time>2021-09-19T17:05:57.000Z</time>
      </trkpt>
      <trkpt lat="43.26881" lon="1.17854">
        <ele>220.60000610352</ele>
        <time>2021-09-19T17:06:01.000Z</time>
      </trkpt>
      <trkpt lat="43.26865" lon="1.17832">
        <ele>221.60000610352</ele>
        <time>2021-09-19T17:06:10.000Z</time>
      </trkpt>
      <trkpt lat="43.26847" lon="1.17809">
        <ele>220</ele>
        <time>2021-09-19T17:06:18.000Z</time>
      </trkpt>
      <trkpt lat="43.26821" lon="1.17791">
        <ele>221.19999694824</ele>
        <time>2021-09-19T17:06:27.000Z</time>
      </trkpt>
      <trkpt lat="43.26803" lon="1.17777">
        <ele>224.60000610352</ele>
        <time>2021-09-19T17:06:33.000Z</time>
      </trkpt>
      <trkpt lat="43.26799" lon="1.17774">
        <ele>225</ele>
        <time>2021-09-19T17:06:34.000Z</time>
      </trkpt>
      <trkpt lat="43.26779" lon="1.17756">
        <ele>226.19999694824</ele>
        <time>2021-09-19T17:06:42.000Z</time>
      </trkpt>
      <trkpt lat="43.2676" lon="1.17732">
        <ele>224.39999389648</ele>
        <time>2021-09-19T17:06:50.000Z</time>
      </trkpt>
      <trkpt lat="43.26741" lon="1.17713">
        <ele>223.39999389648</ele>
        <time>2021-09-19T17:06:58.000Z</time>
      </trkpt>
      <trkpt lat="43.26719" lon="1.177">
        <ele>223</ele>
        <time>2021-09-19T17:07:06.000Z</time>
      </trkpt>
      <trkpt lat="43.26702" lon="1.17677">
        <ele>220.80000305176</ele>
        <time>2021-09-19T17:07:13.000Z</time>
      </trkpt>
      <trkpt lat="43.2668" lon="1.17655">
        <ele>221.60000610352</ele>
        <time>2021-09-19T17:07:21.000Z</time>
      </trkpt>
      <trkpt lat="43.26657" lon="1.17632">
        <ele>222.60000610352</ele>
        <time>2021-09-19T17:07:29.000Z</time>
      </trkpt>
      <trkpt lat="43.26635" lon="1.17623">
        <ele>224.80000305176</ele>
        <time>2021-09-19T17:07:38.000Z</time>
      </trkpt>
      <trkpt lat="43.26608" lon="1.17613">
        <ele>226.39999389648</ele>
        <time>2021-09-19T17:07:47.000Z</time>
      </trkpt>
      <trkpt lat="43.26582" lon="1.17601">
        <ele>225.80000305176</ele>
        <time>2021-09-19T17:07:56.000Z</time>
      </trkpt>
      <trkpt lat="43.26567" lon="1.17595">
        <ele>227.39999389648</ele>
        <time>2021-09-19T17:08:01.000Z</time>
      </trkpt>
      <trkpt lat="43.2654" lon="1.17585">
        <ele>228</ele>
        <time>2021-09-19T17:08:10.000Z</time>
      </trkpt>
      <trkpt lat="43.26517" lon="1.17575">
        <ele>228</ele>
        <time>2021-09-19T17:08:18.000Z</time>
      </trkpt>
      <trkpt lat="43.26493" lon="1.17556">
        <ele>228</ele>
        <time>2021-09-19T17:08:27.000Z</time>
      </trkpt>
      <trkpt lat="43.26469" lon="1.17541">
        <ele>227.80000305176</ele>
        <time>2021-09-19T17:08:34.000Z</time>
      </trkpt>
      <trkpt lat="43.26444" lon="1.17522">
        <ele>228.80000305176</ele>
        <time>2021-09-19T17:08:43.000Z</time>
      </trkpt>
      <trkpt lat="43.26419" lon="1.1751">
        <ele>229.80000305176</ele>
        <time>2021-09-19T17:08:50.000Z</time>
      </trkpt>
      <trkpt lat="43.26397" lon="1.17503">
        <ele>232</ele>
        <time>2021-09-19T17:08:59.000Z</time>
      </trkpt>
      <trkpt lat="43.26373" lon="1.17488">
        <ele>232.39999389648</ele>
        <time>2021-09-19T17:09:07.000Z</time>
      </trkpt>
      <trkpt lat="43.26354" lon="1.17467">
        <ele>229.80000305176</ele>
        <time>2021-09-19T17:09:13.000Z</time>
      </trkpt>
      <trkpt lat="43.26334" lon="1.17451">
        <ele>227.19999694824</ele>
        <time>2021-09-19T17:09:19.000Z</time>
      </trkpt>
      <trkpt lat="43.26322" lon="1.17441">
        <ele>223.80000305176</ele>
        <time>2021-09-19T17:09:23.000Z</time>
      </trkpt>
      <trkpt lat="43.26301" lon="1.1743">
        <ele>222.39999389648</ele>
        <time>2021-09-19T17:09:30.000Z</time>
      </trkpt>
      <trkpt lat="43.26279" lon="1.17424">
        <ele>222.19999694824</ele>
        <time>2021-09-19T17:09:37.000Z</time>
      </trkpt>
      <trkpt lat="43.26255" lon="1.17424">
        <ele>225</ele>
        <time>2021-09-19T17:09:45.000Z</time>
      </trkpt>
      <trkpt lat="43.26252" lon="1.17426">
        <ele>225.39999389648</ele>
        <time>2021-09-19T17:09:46.000Z</time>
      </trkpt>
      <trkpt lat="43.26241" lon="1.17433">
        <ele>227</ele>
        <time>2021-09-19T17:09:50.000Z</time>
      </trkpt>
      <trkpt lat="43.26235" lon="1.17441">
        <ele>228.39999389648</ele>
        <time>2021-09-19T17:09:54.000Z</time>
      </trkpt>
      <trkpt lat="43.26233" lon="1.17441">
        <ele>228.80000305176</ele>
        <time>2021-09-19T17:09:55.000Z</time>
      </trkpt>
      <trkpt lat="43.2623" lon="1.17441">
        <ele>229.39999389648</ele>
        <time>2021-09-19T17:09:56.000Z</time>
      </trkpt>
      <trkpt lat="43.26229" lon="1.17441">
        <ele>229.80000305176</ele>
        <time>2021-09-19T17:09:57.000Z</time>
      </trkpt>
      <trkpt lat="43.26226" lon="1.17441">
        <ele>230.19999694824</ele>
        <time>2021-09-19T17:09:58.000Z</time>
      </trkpt>
      <trkpt lat="43.26223" lon="1.1744">
        <ele>230.60000610352</ele>
        <time>2021-09-19T17:09:59.000Z</time>
      </trkpt>
      <trkpt lat="43.26203" lon="1.17436">
        <ele>234</ele>
        <time>2021-09-19T17:10:09.000Z</time>
      </trkpt>
      <trkpt lat="43.26179" lon="1.17427">
        <ele>236.60000610352</ele>
        <time>2021-09-19T17:10:19.000Z</time>
      </trkpt>
      <trkpt lat="43.26158" lon="1.1742">
        <ele>240</ele>
        <time>2021-09-19T17:10:29.000Z</time>
      </trkpt>
      <trkpt lat="43.26142" lon="1.17416">
        <ele>243.19999694824</ele>
        <time>2021-09-19T17:10:37.000Z</time>
      </trkpt>
      <trkpt lat="43.26132" lon="1.1741">
        <ele>245.39999389648</ele>
        <time>2021-09-19T17:10:42.000Z</time>
      </trkpt>
      <trkpt lat="43.26112" lon="1.1741">
        <ele>248.39999389648</ele>
        <time>2021-09-19T17:10:50.000Z</time>
      </trkpt>
      <trkpt lat="43.26097" lon="1.17401">
        <ele>251.39999389648</ele>
        <time>2021-09-19T17:10:57.000Z</time>
      </trkpt>
      <trkpt lat="43.26077" lon="1.17394">
        <ele>253</ele>
        <time>2021-09-19T17:11:06.000Z</time>
      </trkpt>
      <trkpt lat="43.26061" lon="1.17375">
        <ele>252</ele>
        <time>2021-09-19T17:11:13.000Z</time>
      </trkpt>
      <trkpt lat="43.26042" lon="1.17356">
        <ele>252.80000305176</ele>
        <time>2021-09-19T17:11:21.000Z</time>
      </trkpt>
      <trkpt lat="43.26028" lon="1.17338">
        <ele>253.80000305176</ele>
        <time>2021-09-19T17:11:28.000Z</time>
      </trkpt>
      <trkpt lat="43.26013" lon="1.1732">
        <ele>253.80000305176</ele>
        <time>2021-09-19T17:11:35.000Z</time>
      </trkpt>
      <trkpt lat="43.25998" lon="1.173">
        <ele>252.60000610352</ele>
        <time>2021-09-19T17:11:41.000Z</time>
      </trkpt>
      <trkpt lat="43.25981" lon="1.17283">
        <ele>250.39999389648</ele>
        <time>2021-09-19T17:11:48.000Z</time>
      </trkpt>
      <trkpt lat="43.2596" lon="1.17289">
        <ele>248.19999694824</ele>
        <time>2021-09-19T17:11:57.000Z</time>
      </trkpt>
      <trkpt lat="43.25947" lon="1.17302">
        <ele>245.39999389648</ele>
        <time>2021-09-19T17:12:03.000Z</time>
      </trkpt>
      <trkpt lat="43.25945" lon="1.17302">
        <ele>245.19999694824</ele>
        <time>2021-09-19T17:12:04.000Z</time>
      </trkpt>
      <trkpt lat="43.25942" lon="1.17301">
        <ele>244.39999389648</ele>
        <time>2021-09-19T17:12:05.000Z</time>
      </trkpt>
      <trkpt lat="43.2594" lon="1.17299">
        <ele>243.80000305176</ele>
        <time>2021-09-19T17:12:06.000Z</time>
      </trkpt>
      <trkpt lat="43.25937" lon="1.17298">
        <ele>243.19999694824</ele>
        <time>2021-09-19T17:12:07.000Z</time>
      </trkpt>
      <trkpt lat="43.25935" lon="1.17296">
        <ele>242.80000305176</ele>
        <time>2021-09-19T17:12:08.000Z</time>
      </trkpt>
      <trkpt lat="43.25934" lon="1.17294">
        <ele>242.39999389648</ele>
        <time>2021-09-19T17:12:09.000Z</time>
      </trkpt>
      <trkpt lat="43.25926" lon="1.17273">
        <ele>239.60000610352</ele>
        <time>2021-09-19T17:12:16.000Z</time>
      </trkpt>
      <trkpt lat="43.25922" lon="1.17257">
        <ele>236.19999694824</ele>
        <time>2021-09-19T17:12:21.000Z</time>
      </trkpt>
      <trkpt lat="43.25916" lon="1.17233">
        <ele>233.19999694824</ele>
        <time>2021-09-19T17:12:28.000Z</time>
      </trkpt>
      <trkpt lat="43.25898" lon="1.17217">
        <ele>230</ele>
        <time>2021-09-19T17:12:34.000Z</time>
      </trkpt>
      <trkpt lat="43.25881" lon="1.17202">
        <ele>228</ele>
        <time>2021-09-19T17:12:41.000Z</time>
      </trkpt>
      <trkpt lat="43.25861" lon="1.17193">
        <ele>225.80000305176</ele>
        <time>2021-09-19T17:12:49.000Z</time>
      </trkpt>
      <trkpt lat="43.25842" lon="1.17181">
        <ele>224.19999694824</ele>
        <time>2021-09-19T17:12:56.000Z</time>
      </trkpt>
      <trkpt lat="43.25828" lon="1.17154">
        <ele>221.39999389648</ele>
        <time>2021-09-19T17:13:05.000Z</time>
      </trkpt>
      <trkpt lat="43.25812" lon="1.1713">
        <ele>222.19999694824</ele>
        <time>2021-09-19T17:13:12.000Z</time>
      </trkpt>
      <trkpt lat="43.25796" lon="1.17106">
        <ele>222.19999694824</ele>
        <time>2021-09-19T17:13:20.000Z</time>
      </trkpt>
      <trkpt lat="43.25777" lon="1.17083">
        <ele>222</ele>
        <time>2021-09-19T17:13:28.000Z</time>
      </trkpt>
      <trkpt lat="43.25759" lon="1.17065">
        <ele>222</ele>
        <time>2021-09-19T17:13:35.000Z</time>
      </trkpt>
      <trkpt lat="43.25737" lon="1.17054">
        <ele>220.80000305176</ele>
        <time>2021-09-19T17:13:42.000Z</time>
      </trkpt>
      <trkpt lat="43.25715" lon="1.17046">
        <ele>219</ele>
        <time>2021-09-19T17:13:49.000Z</time>
      </trkpt>
      <trkpt lat="43.25692" lon="1.17036">
        <ele>218.19999694824</ele>
        <time>2021-09-19T17:13:56.000Z</time>
      </trkpt>
      <trkpt lat="43.2567" lon="1.17023">
        <ele>218</ele>
        <time>2021-09-19T17:14:03.000Z</time>
      </trkpt>
      <trkpt lat="43.25647" lon="1.1701">
        <ele>218</ele>
        <time>2021-09-19T17:14:10.000Z</time>
      </trkpt>
      <trkpt lat="43.25624" lon="1.17001">
        <ele>218.19999694824</ele>
        <time>2021-09-19T17:14:18.000Z</time>
      </trkpt>
      <trkpt lat="43.25598" lon="1.17004">
        <ele>220.60000610352</ele>
        <time>2021-09-19T17:14:27.000Z</time>
      </trkpt>
      <trkpt lat="43.25577" lon="1.17005">
        <ele>222.60000610352</ele>
        <time>2021-09-19T17:14:35.000Z</time>
      </trkpt>
      <trkpt lat="43.25555" lon="1.16999">
        <ele>224.39999389648</ele>
        <time>2021-09-19T17:14:42.000Z</time>
      </trkpt>
      <trkpt lat="43.2553" lon="1.16991">
        <ele>225.80000305176</ele>
        <time>2021-09-19T17:14:51.000Z</time>
      </trkpt>
      <trkpt lat="43.25506" lon="1.16979">
        <ele>227.19999694824</ele>
        <time>2021-09-19T17:15:00.000Z</time>
      </trkpt>
      <trkpt lat="43.25495" lon="1.16976">
        <ele>227.80000305176</ele>
        <time>2021-09-19T17:15:04.000Z</time>
      </trkpt>
      <trkpt lat="43.2548" lon="1.16967">
        <ele>228.60000610352</ele>
        <time>2021-09-19T17:15:09.000Z</time>
      </trkpt>
      <trkpt lat="43.25453" lon="1.16954">
        <ele>231</ele>
        <time>2021-09-19T17:15:18.000Z</time>
      </trkpt>
      <trkpt lat="43.25429" lon="1.16946">
        <ele>232.80000305176</ele>
        <time>2021-09-19T17:15:26.000Z</time>
      </trkpt>
      <trkpt lat="43.25406" lon="1.16935">
        <ele>235.19999694824</ele>
        <time>2021-09-19T17:15:34.000Z</time>
      </trkpt>
      <trkpt lat="43.25377" lon="1.16925">
        <ele>237</ele>
        <time>2021-09-19T17:15:46.000Z</time>
      </trkpt>
      <trkpt lat="43.25354" lon="1.16917">
        <ele>239.60000610352</ele>
        <time>2021-09-19T17:15:54.000Z</time>
      </trkpt>
      <trkpt lat="43.25335" lon="1.1692">
        <ele>242.60000610352</ele>
        <time>2021-09-19T17:16:03.000Z</time>
      </trkpt>
      <trkpt lat="43.25324" lon="1.16926">
        <ele>244.80000305176</ele>
        <time>2021-09-19T17:16:07.000Z</time>
      </trkpt>
      <trkpt lat="43.25322" lon="1.16924">
        <ele>244.80000305176</ele>
        <time>2021-09-19T17:16:08.000Z</time>
      </trkpt>
      <trkpt lat="43.2532" lon="1.16923">
        <ele>245.19999694824</ele>
        <time>2021-09-19T17:16:09.000Z</time>
      </trkpt>
      <trkpt lat="43.25319" lon="1.16921">
        <ele>245.60000610352</ele>
        <time>2021-09-19T17:16:10.000Z</time>
      </trkpt>
      <trkpt lat="43.25317" lon="1.1692">
        <ele>245.80000305176</ele>
        <time>2021-09-19T17:16:11.000Z</time>
      </trkpt>
      <trkpt lat="43.25315" lon="1.16919">
        <ele>246.39999389648</ele>
        <time>2021-09-19T17:16:12.000Z</time>
      </trkpt>
      <trkpt lat="43.25313" lon="1.16917">
        <ele>247</ele>
        <time>2021-09-19T17:16:13.000Z</time>
      </trkpt>
      <trkpt lat="43.2531" lon="1.16916">
        <ele>247.19999694824</ele>
        <time>2021-09-19T17:16:14.000Z</time>
      </trkpt>
      <trkpt lat="43.25308" lon="1.16914">
        <ele>247.19999694824</ele>
        <time>2021-09-19T17:16:15.000Z</time>
      </trkpt>
      <trkpt lat="43.25306" lon="1.16913">
        <ele>247.19999694824</ele>
        <time>2021-09-19T17:16:16.000Z</time>
      </trkpt>
      <trkpt lat="43.25304" lon="1.16911">
        <ele>247.39999389648</ele>
        <time>2021-09-19T17:16:17.000Z</time>
      </trkpt>
      <trkpt lat="43.25285" lon="1.16895">
        <ele>248.19999694824</ele>
        <time>2021-09-19T17:16:25.000Z</time>
      </trkpt>
      <trkpt lat="43.25264" lon="1.16879">
        <ele>250</ele>
        <time>2021-09-19T17:16:33.000Z</time>
      </trkpt>
      <trkpt lat="43.25247" lon="1.16865">
        <ele>252.60000610352</ele>
        <time>2021-09-19T17:16:41.000Z</time>
      </trkpt>
      <trkpt lat="43.25231" lon="1.16849">
        <ele>255.19999694824</ele>
        <time>2021-09-19T17:16:48.000Z</time>
      </trkpt>
      <trkpt lat="43.2522" lon="1.16839">
        <ele>258.20001220703</ele>
        <time>2021-09-19T17:16:54.000Z</time>
      </trkpt>
      <trkpt lat="43.25218" lon="1.16838">
        <ele>258.39999389648</ele>
        <time>2021-09-19T17:16:55.000Z</time>
      </trkpt>
      <trkpt lat="43.25197" lon="1.16852">
        <ele>259.79998779297</ele>
        <time>2021-09-19T17:17:04.000Z</time>
      </trkpt>
      <trkpt lat="43.25181" lon="1.1688">
        <ele>260.39999389648</ele>
        <time>2021-09-19T17:17:11.000Z</time>
      </trkpt>
      <trkpt lat="43.25165" lon="1.16911">
        <ele>259.39999389648</ele>
        <time>2021-09-19T17:17:18.000Z</time>
      </trkpt>
      <trkpt lat="43.25147" lon="1.16934">
        <ele>259.39999389648</ele>
        <time>2021-09-19T17:17:25.000Z</time>
      </trkpt>
      <trkpt lat="43.25127" lon="1.16944">
        <ele>260</ele>
        <time>2021-09-19T17:17:32.000Z</time>
      </trkpt>
      <trkpt lat="43.25109" lon="1.16934">
        <ele>261.20001220703</ele>
        <time>2021-09-19T17:17:39.000Z</time>
      </trkpt>
      <trkpt lat="43.25089" lon="1.16938">
        <ele>261.79998779297</ele>
        <time>2021-09-19T17:17:47.000Z</time>
      </trkpt>
      <trkpt lat="43.25071" lon="1.16946">
        <ele>261.79998779297</ele>
        <time>2021-09-19T17:17:55.000Z</time>
      </trkpt>
      <trkpt lat="43.25051" lon="1.16939">
        <ele>262.39999389648</ele>
        <time>2021-09-19T17:18:04.000Z</time>
      </trkpt>
      <trkpt lat="43.25027" lon="1.16939">
        <ele>262</ele>
        <time>2021-09-19T17:18:11.000Z</time>
      </trkpt>
      <trkpt lat="43.25002" lon="1.16945">
        <ele>261.79998779297</ele>
        <time>2021-09-19T17:18:19.000Z</time>
      </trkpt>
      <trkpt lat="43.24978" lon="1.16951">
        <ele>261.39999389648</ele>
        <time>2021-09-19T17:18:27.000Z</time>
      </trkpt>
      <trkpt lat="43.24951" lon="1.16955">
        <ele>261.60000610352</ele>
        <time>2021-09-19T17:18:35.000Z</time>
      </trkpt>
      <trkpt lat="43.24921" lon="1.16967">
        <ele>260.79998779297</ele>
        <time>2021-09-19T17:18:43.000Z</time>
      </trkpt>
      <trkpt lat="43.24896" lon="1.16976">
        <ele>260.20001220703</ele>
        <time>2021-09-19T17:18:51.000Z</time>
      </trkpt>
      <trkpt lat="43.24872" lon="1.16975">
        <ele>258.60000610352</ele>
        <time>2021-09-19T17:19:00.000Z</time>
      </trkpt>
      <trkpt lat="43.24847" lon="1.16974">
        <ele>257.79998779297</ele>
        <time>2021-09-19T17:19:08.000Z</time>
      </trkpt>
      <trkpt lat="43.24818" lon="1.16975">
        <ele>259.20001220703</ele>
        <time>2021-09-19T17:19:17.000Z</time>
      </trkpt>
      <trkpt lat="43.24794" lon="1.1697">
        <ele>260.20001220703</ele>
        <time>2021-09-19T17:19:24.000Z</time>
      </trkpt>
      <trkpt lat="43.24776" lon="1.16953">
        <ele>260.79998779297</ele>
        <time>2021-09-19T17:19:31.000Z</time>
      </trkpt>
      <trkpt lat="43.24756" lon="1.16937">
        <ele>260.79998779297</ele>
        <time>2021-09-19T17:19:38.000Z</time>
      </trkpt>
      <trkpt lat="43.24738" lon="1.16917">
        <ele>259</ele>
        <time>2021-09-19T17:19:45.000Z</time>
      </trkpt>
      <trkpt lat="43.24722" lon="1.16899">
        <ele>257.79998779297</ele>
        <time>2021-09-19T17:19:51.000Z</time>
      </trkpt>
      <trkpt lat="43.24717" lon="1.16879">
        <ele>254.39999389648</ele>
        <time>2021-09-19T17:19:59.000Z</time>
      </trkpt>
      <trkpt lat="43.24715" lon="1.1687">
        <ele>251.19999694824</ele>
        <time>2021-09-19T17:20:02.000Z</time>
      </trkpt>
      <trkpt lat="43.24713" lon="1.16861">
        <ele>248</ele>
        <time>2021-09-19T17:20:05.000Z</time>
      </trkpt>
      <trkpt lat="43.24713" lon="1.16857">
        <ele>247.39999389648</ele>
        <time>2021-09-19T17:20:07.000Z</time>
      </trkpt>
      <trkpt lat="43.24714" lon="1.16856">
        <ele>246.39999389648</ele>
        <time>2021-09-19T17:20:08.000Z</time>
      </trkpt>
      <trkpt lat="43.24713" lon="1.16854">
        <ele>245</ele>
        <time>2021-09-19T17:20:09.000Z</time>
      </trkpt>
      <trkpt lat="43.24714" lon="1.16851">
        <ele>243.19999694824</ele>
        <time>2021-09-19T17:20:11.000Z</time>
      </trkpt>
      <trkpt lat="43.24715" lon="1.1685">
        <ele>242</ele>
        <time>2021-09-19T17:20:12.000Z</time>
      </trkpt>
      <trkpt lat="43.24716" lon="1.16849">
        <ele>241.39999389648</ele>
        <time>2021-09-19T17:20:13.000Z</time>
      </trkpt>
      <trkpt lat="43.24717" lon="1.16847">
        <ele>240.80000305176</ele>
        <time>2021-09-19T17:20:14.000Z</time>
      </trkpt>
      <trkpt lat="43.24718" lon="1.16845">
        <ele>239.60000610352</ele>
        <time>2021-09-19T17:20:15.000Z</time>
      </trkpt>
      <trkpt lat="43.24718" lon="1.16842">
        <ele>238.19999694824</ele>
        <time>2021-09-19T17:20:16.000Z</time>
      </trkpt>
      <trkpt lat="43.24719" lon="1.1684">
        <ele>237.19999694824</ele>
        <time>2021-09-19T17:20:17.000Z</time>
      </trkpt>
      <trkpt lat="43.24719" lon="1.16827">
        <ele>233.60000610352</ele>
        <time>2021-09-19T17:20:22.000Z</time>
      </trkpt>
      <trkpt lat="43.24713" lon="1.16814">
        <ele>230.19999694824</ele>
        <time>2021-09-19T17:20:27.000Z</time>
      </trkpt>
      <trkpt lat="43.24712" lon="1.16811">
        <ele>230</ele>
        <time>2021-09-19T17:20:28.000Z</time>
      </trkpt>
      <trkpt lat="43.24708" lon="1.16804">
        <ele>227</ele>
        <time>2021-09-19T17:20:31.000Z</time>
      </trkpt>
      <trkpt lat="43.24707" lon="1.168">
        <ele>226</ele>
        <time>2021-09-19T17:20:32.000Z</time>
      </trkpt>
      <trkpt lat="43.24707" lon="1.16797">
        <ele>225</ele>
        <time>2021-09-19T17:20:33.000Z</time>
      </trkpt>
      <trkpt lat="43.24707" lon="1.16793">
        <ele>224.39999389648</ele>
        <time>2021-09-19T17:20:34.000Z</time>
      </trkpt>
      <trkpt lat="43.24706" lon="1.16787">
        <ele>223.60000610352</ele>
        <time>2021-09-19T17:20:35.000Z</time>
      </trkpt>
      <trkpt lat="43.24705" lon="1.16783">
        <ele>222.39999389648</ele>
        <time>2021-09-19T17:20:36.000Z</time>
      </trkpt>
      <trkpt lat="43.24702" lon="1.16778">
        <ele>221.60000610352</ele>
        <time>2021-09-19T17:20:37.000Z</time>
      </trkpt>
      <trkpt lat="43.247" lon="1.16774">
        <ele>221.39999389648</ele>
        <time>2021-09-19T17:20:38.000Z</time>
      </trkpt>
      <trkpt lat="43.24698" lon="1.1677">
        <ele>221.19999694824</ele>
        <time>2021-09-19T17:20:39.000Z</time>
      </trkpt>
      <trkpt lat="43.24695" lon="1.16766">
        <ele>221</ele>
        <time>2021-09-19T17:20:40.000Z</time>
      </trkpt>
      <trkpt lat="43.24681" lon="1.16743">
        <ele>221</ele>
        <time>2021-09-19T17:20:46.000Z</time>
      </trkpt>
      <trkpt lat="43.24663" lon="1.16723">
        <ele>221.60000610352</ele>
        <time>2021-09-19T17:20:54.000Z</time>
      </trkpt>
      <trkpt lat="43.24656" lon="1.16686">
        <ele>220.19999694824</ele>
        <time>2021-09-19T17:21:02.000Z</time>
      </trkpt>
      <trkpt lat="43.24651" lon="1.16672">
        <ele>218.39999389648</ele>
        <time>2021-09-19T17:21:05.000Z</time>
      </trkpt>
      <trkpt lat="43.24646" lon="1.16656">
        <ele>215.19999694824</ele>
        <time>2021-09-19T17:21:08.000Z</time>
      </trkpt>
      <trkpt lat="43.24641" lon="1.16639">
        <ele>213.60000610352</ele>
        <time>2021-09-19T17:21:11.000Z</time>
      </trkpt>
      <trkpt lat="43.24635" lon="1.16624">
        <ele>212</ele>
        <time>2021-09-19T17:21:14.000Z</time>
      </trkpt>
      <trkpt lat="43.24622" lon="1.16599">
        <ele>212</ele>
        <time>2021-09-19T17:21:20.000Z</time>
      </trkpt>
      <trkpt lat="43.24613" lon="1.16586">
        <ele>212.39999389648</ele>
        <time>2021-09-19T17:21:23.000Z</time>
      </trkpt>
      <trkpt lat="43.24611" lon="1.16581">
        <ele>212.39999389648</ele>
        <time>2021-09-19T17:21:24.000Z</time>
      </trkpt>
      <trkpt lat="43.24599" lon="1.16555">
        <ele>212.60000610352</ele>
        <time>2021-09-19T17:21:30.000Z</time>
      </trkpt>
      <trkpt lat="43.24588" lon="1.16531">
        <ele>212.19999694824</ele>
        <time>2021-09-19T17:21:37.000Z</time>
      </trkpt>
      <trkpt lat="43.24579" lon="1.16501">
        <ele>212</ele>
        <time>2021-09-19T17:21:44.000Z</time>
      </trkpt>
      <trkpt lat="43.24572" lon="1.16476">
        <ele>211.80000305176</ele>
        <time>2021-09-19T17:21:50.000Z</time>
      </trkpt>
      <trkpt lat="43.24565" lon="1.16449">
        <ele>212.39999389648</ele>
        <time>2021-09-19T17:21:57.000Z</time>
      </trkpt>
      <trkpt lat="43.24554" lon="1.16425">
        <ele>212.60000610352</ele>
        <time>2021-09-19T17:22:04.000Z</time>
      </trkpt>
      <trkpt lat="43.24541" lon="1.16403">
        <ele>213</ele>
        <time>2021-09-19T17:22:11.000Z</time>
      </trkpt>
      <trkpt lat="43.24522" lon="1.16408">
        <ele>214.80000305176</ele>
        <time>2021-09-19T17:22:21.000Z</time>
      </trkpt>
      <trkpt lat="43.24505" lon="1.16424">
        <ele>217.19999694824</ele>
        <time>2021-09-19T17:22:29.000Z</time>
      </trkpt>
      <trkpt lat="43.24487" lon="1.16445">
        <ele>220</ele>
        <time>2021-09-19T17:22:38.000Z</time>
      </trkpt>
      <trkpt lat="43.24476" lon="1.16464">
        <ele>223.19999694824</ele>
        <time>2021-09-19T17:22:46.000Z</time>
      </trkpt>
      <trkpt lat="43.24465" lon="1.16473">
        <ele>226.39999389648</ele>
        <time>2021-09-19T17:22:54.000Z</time>
      </trkpt>
      <trkpt lat="43.24461" lon="1.16472">
        <ele>226.80000305176</ele>
        <time>2021-09-19T17:22:56.000Z</time>
      </trkpt>
      <trkpt lat="43.2446" lon="1.16471">
        <ele>227.19999694824</ele>
        <time>2021-09-19T17:22:57.000Z</time>
      </trkpt>
      <trkpt lat="43.24458" lon="1.1647">
        <ele>227.19999694824</ele>
        <time>2021-09-19T17:22:58.000Z</time>
      </trkpt>
      <trkpt lat="43.24457" lon="1.1647">
        <ele>227</ele>
        <time>2021-09-19T17:22:59.000Z</time>
      </trkpt>
      <trkpt lat="43.24454" lon="1.16469">
        <ele>227</ele>
        <time>2021-09-19T17:23:00.000Z</time>
      </trkpt>
      <trkpt lat="43.24452" lon="1.16468">
        <ele>227.19999694824</ele>
        <time>2021-09-19T17:23:01.000Z</time>
      </trkpt>
      <trkpt lat="43.24451" lon="1.16467">
        <ele>227.39999389648</ele>
        <time>2021-09-19T17:23:02.000Z</time>
      </trkpt>
      <trkpt lat="43.24449" lon="1.16467">
        <ele>227.60000610352</ele>
        <time>2021-09-19T17:23:03.000Z</time>
      </trkpt>
      <trkpt lat="43.24448" lon="1.16468">
        <ele>227.80000305176</ele>
        <time>2021-09-19T17:23:04.000Z</time>
      </trkpt>
      <trkpt lat="43.24446" lon="1.16468">
        <ele>228</ele>
        <time>2021-09-19T17:23:05.000Z</time>
      </trkpt>
      <trkpt lat="43.2442" lon="1.16465">
        <ele>229</ele>
        <time>2021-09-19T17:23:18.000Z</time>
      </trkpt>
      <trkpt lat="43.24409" lon="1.16457">
        <ele>230.39999389648</ele>
        <time>2021-09-19T17:23:25.000Z</time>
      </trkpt>
      <trkpt lat="43.24408" lon="1.16457">
        <ele>230.80000305176</ele>
        <time>2021-09-19T17:23:26.000Z</time>
      </trkpt>
      <trkpt lat="43.24406" lon="1.16456">
        <ele>231</ele>
        <time>2021-09-19T17:23:27.000Z</time>
      </trkpt>
      <trkpt lat="43.24389" lon="1.16448">
        <ele>232.60000610352</ele>
        <time>2021-09-19T17:23:35.000Z</time>
      </trkpt>
      <trkpt lat="43.24387" lon="1.16449">
        <ele>233.19999694824</ele>
        <time>2021-09-19T17:23:36.000Z</time>
      </trkpt>
      <trkpt lat="43.24386" lon="1.1645">
        <ele>233.60000610352</ele>
        <time>2021-09-19T17:23:37.000Z</time>
      </trkpt>
      <trkpt lat="43.24385" lon="1.16452">
        <ele>234</ele>
        <time>2021-09-19T17:23:38.000Z</time>
      </trkpt>
      <trkpt lat="43.24385" lon="1.16454">
        <ele>234.39999389648</ele>
        <time>2021-09-19T17:23:39.000Z</time>
      </trkpt>
      <trkpt lat="43.24386" lon="1.16456">
        <ele>234.80000305176</ele>
        <time>2021-09-19T17:23:40.000Z</time>
      </trkpt>
      <trkpt lat="43.24387" lon="1.16458">
        <ele>235.19999694824</ele>
        <time>2021-09-19T17:23:41.000Z</time>
      </trkpt>
      <trkpt lat="43.24388" lon="1.1646">
        <ele>235.39999389648</ele>
        <time>2021-09-19T17:23:42.000Z</time>
      </trkpt>
      <trkpt lat="43.24389" lon="1.16461">
        <ele>235.80000305176</ele>
        <time>2021-09-19T17:23:43.000Z</time>
      </trkpt>
      <trkpt lat="43.24389" lon="1.16463">
        <ele>236</ele>
        <time>2021-09-19T17:23:44.000Z</time>
      </trkpt>
      <trkpt lat="43.24389" lon="1.16465">
        <ele>236.60000610352</ele>
        <time>2021-09-19T17:23:45.000Z</time>
      </trkpt>
      <trkpt lat="43.24389" lon="1.16467">
        <ele>237</ele>
        <time>2021-09-19T17:23:46.000Z</time>
      </trkpt>
      <trkpt lat="43.24389" lon="1.16468">
        <ele>237.60000610352</ele>
        <time>2021-09-19T17:23:47.000Z</time>
      </trkpt>
      <trkpt lat="43.24389" lon="1.16469">
        <ele>238.19999694824</ele>
        <time>2021-09-19T17:23:48.000Z</time>
      </trkpt>
      <trkpt lat="43.2439" lon="1.1647">
        <ele>238.60000610352</ele>
        <time>2021-09-19T17:23:49.000Z</time>
      </trkpt>
      <trkpt lat="43.2439" lon="1.16471">
        <ele>239</ele>
        <time>2021-09-19T17:23:50.000Z</time>
      </trkpt>
      <trkpt lat="43.2439" lon="1.16481">
        <ele>242</ele>
        <time>2021-09-19T17:23:56.000Z</time>
      </trkpt>
      <trkpt lat="43.24394" lon="1.16493">
        <ele>245.19999694824</ele>
        <time>2021-09-19T17:24:04.000Z</time>
      </trkpt>
      <trkpt lat="43.24398" lon="1.16505">
        <ele>248.39999389648</ele>
        <time>2021-09-19T17:24:11.000Z</time>
      </trkpt>
      <trkpt lat="43.24407" lon="1.1652">
        <ele>251.60000610352</ele>
        <time>2021-09-19T17:24:19.000Z</time>
      </trkpt>
      <trkpt lat="43.24419" lon="1.16535">
        <ele>254.60000610352</ele>
        <time>2021-09-19T17:24:29.000Z</time>
      </trkpt>
      <trkpt lat="43.24426" lon="1.16549">
        <ele>257.60000610352</ele>
        <time>2021-09-19T17:24:38.000Z</time>
      </trkpt>
      <trkpt lat="43.24429" lon="1.1655">
        <ele>258</ele>
        <time>2021-09-19T17:24:39.000Z</time>
      </trkpt>
      <trkpt lat="43.24431" lon="1.16551">
        <ele>258.20001220703</ele>
        <time>2021-09-19T17:24:40.000Z</time>
      </trkpt>
      <trkpt lat="43.24443" lon="1.16557">
        <ele>260.20001220703</ele>
        <time>2021-09-19T17:24:47.000Z</time>
      </trkpt>
      <trkpt lat="43.24463" lon="1.16567">
        <ele>261.39999389648</ele>
        <time>2021-09-19T17:24:57.000Z</time>
      </trkpt>
      <trkpt lat="43.24482" lon="1.16582">
        <ele>262.39999389648</ele>
        <time>2021-09-19T17:25:07.000Z</time>
      </trkpt>
      <trkpt lat="43.24502" lon="1.16595">
        <ele>262.79998779297</ele>
        <time>2021-09-19T17:25:15.000Z</time>
      </trkpt>
      <trkpt lat="43.24521" lon="1.16616">
        <ele>262.60000610352</ele>
        <time>2021-09-19T17:25:24.000Z</time>
      </trkpt>
      <trkpt lat="43.2453" lon="1.16646">
        <ele>262.79998779297</ele>
        <time>2021-09-19T17:25:32.000Z</time>
      </trkpt>
      <trkpt lat="43.24543" lon="1.16672">
        <ele>262.79998779297</ele>
        <time>2021-09-19T17:25:40.000Z</time>
      </trkpt>
      <trkpt lat="43.24563" lon="1.16693">
        <ele>262.60000610352</ele>
        <time>2021-09-19T17:25:48.000Z</time>
      </trkpt>
      <trkpt lat="43.24581" lon="1.16714">
        <ele>261.79998779297</ele>
        <time>2021-09-19T17:25:55.000Z</time>
      </trkpt>
      <trkpt lat="43.24595" lon="1.16741">
        <ele>260.79998779297</ele>
        <time>2021-09-19T17:26:02.000Z</time>
      </trkpt>
      <trkpt lat="43.24603" lon="1.16756">
        <ele>260.79998779297</ele>
        <time>2021-09-19T17:26:06.000Z</time>
      </trkpt>
      <trkpt lat="43.24611" lon="1.16769">
        <ele>260.20001220703</ele>
        <time>2021-09-19T17:26:10.000Z</time>
      </trkpt>
      <trkpt lat="43.24625" lon="1.16792">
        <ele>259.20001220703</ele>
        <time>2021-09-19T17:26:17.000Z</time>
      </trkpt>
      <trkpt lat="43.24643" lon="1.16807">
        <ele>258.79998779297</ele>
        <time>2021-09-19T17:26:23.000Z</time>
      </trkpt>
      <trkpt lat="43.24661" lon="1.16828">
        <ele>258.79998779297</ele>
        <time>2021-09-19T17:26:30.000Z</time>
      </trkpt>
      <trkpt lat="43.24678" lon="1.16848">
        <ele>258.20001220703</ele>
        <time>2021-09-19T17:26:37.000Z</time>
      </trkpt>
      <trkpt lat="43.24695" lon="1.16869">
        <ele>256.60000610352</ele>
        <time>2021-09-19T17:26:44.000Z</time>
      </trkpt>
      <trkpt lat="43.24711" lon="1.1689">
        <ele>256.39999389648</ele>
        <time>2021-09-19T17:26:51.000Z</time>
      </trkpt>
      <trkpt lat="43.24724" lon="1.16913">
        <ele>257</ele>
        <time>2021-09-19T17:26:58.000Z</time>
      </trkpt>
      <trkpt lat="43.24736" lon="1.16936">
        <ele>258.79998779297</ele>
        <time>2021-09-19T17:27:05.000Z</time>
      </trkpt>
      <trkpt lat="43.24757" lon="1.16951">
        <ele>260.20001220703</ele>
        <time>2021-09-19T17:27:13.000Z</time>
      </trkpt>
      <trkpt lat="43.24776" lon="1.16968">
        <ele>260.39999389648</ele>
        <time>2021-09-19T17:27:20.000Z</time>
      </trkpt>
      <trkpt lat="43.24795" lon="1.16984">
        <ele>259.60000610352</ele>
        <time>2021-09-19T17:27:27.000Z</time>
      </trkpt>
      <trkpt lat="43.2482" lon="1.16984">
        <ele>258.39999389648</ele>
        <time>2021-09-19T17:27:34.000Z</time>
      </trkpt>
      <trkpt lat="43.24841" lon="1.16987">
        <ele>257.39999389648</ele>
        <time>2021-09-19T17:27:40.000Z</time>
      </trkpt>
      <trkpt lat="43.24862" lon="1.16993">
        <ele>257.60000610352</ele>
        <time>2021-09-19T17:27:46.000Z</time>
      </trkpt>
      <trkpt lat="43.24877" lon="1.17016">
        <ele>258.20001220703</ele>
        <time>2021-09-19T17:27:53.000Z</time>
      </trkpt>
      <trkpt lat="43.24887" lon="1.17041">
        <ele>257.79998779297</ele>
        <time>2021-09-19T17:27:59.000Z</time>
      </trkpt>
      <trkpt lat="43.24901" lon="1.17064">
        <ele>258.60000610352</ele>
        <time>2021-09-19T17:28:05.000Z</time>
      </trkpt>
      <trkpt lat="43.24915" lon="1.17086">
        <ele>257.39999389648</ele>
        <time>2021-09-19T17:28:11.000Z</time>
      </trkpt>
      <trkpt lat="43.2493" lon="1.17105">
        <ele>257</ele>
        <time>2021-09-19T17:28:18.000Z</time>
      </trkpt>
      <trkpt lat="43.24944" lon="1.17128">
        <ele>255.19999694824</ele>
        <time>2021-09-19T17:28:25.000Z</time>
      </trkpt>
      <trkpt lat="43.24961" lon="1.17148">
        <ele>255</ele>
        <time>2021-09-19T17:28:32.000Z</time>
      </trkpt>
      <trkpt lat="43.24975" lon="1.17171">
        <ele>255</ele>
        <time>2021-09-19T17:28:38.000Z</time>
      </trkpt>
      <trkpt lat="43.24975" lon="1.17203">
        <ele>253.60000610352</ele>
        <time>2021-09-19T17:28:45.000Z</time>
      </trkpt>
      <trkpt lat="43.24975" lon="1.17218">
        <ele>252.39999389648</ele>
        <time>2021-09-19T17:28:48.000Z</time>
      </trkpt>
      <trkpt lat="43.24986" lon="1.17245">
        <ele>250.39999389648</ele>
        <time>2021-09-19T17:28:54.000Z</time>
      </trkpt>
      <trkpt lat="43.24998" lon="1.17273">
        <ele>248.80000305176</ele>
        <time>2021-09-19T17:29:00.000Z</time>
      </trkpt>
      <trkpt lat="43.25011" lon="1.17298">
        <ele>247</ele>
        <time>2021-09-19T17:29:06.000Z</time>
      </trkpt>
      <trkpt lat="43.25023" lon="1.17323">
        <ele>245.39999389648</ele>
        <time>2021-09-19T17:29:12.000Z</time>
      </trkpt>
      <trkpt lat="43.25035" lon="1.17346">
        <ele>244</ele>
        <time>2021-09-19T17:29:18.000Z</time>
      </trkpt>
      <trkpt lat="43.25051" lon="1.17366">
        <ele>242.19999694824</ele>
        <time>2021-09-19T17:29:24.000Z</time>
      </trkpt>
      <trkpt lat="43.25067" lon="1.17384">
        <ele>241.60000610352</ele>
        <time>2021-09-19T17:29:30.000Z</time>
      </trkpt>
      <trkpt lat="43.25085" lon="1.17405">
        <ele>240.39999389648</ele>
        <time>2021-09-19T17:29:37.000Z</time>
      </trkpt>
      <trkpt lat="43.25102" lon="1.17424">
        <ele>241</ele>
        <time>2021-09-19T17:29:43.000Z</time>
      </trkpt>
      <trkpt lat="43.25119" lon="1.17443">
        <ele>239</ele>
        <time>2021-09-19T17:29:49.000Z</time>
      </trkpt>
      <trkpt lat="43.25136" lon="1.17462">
        <ele>238.60000610352</ele>
        <time>2021-09-19T17:29:56.000Z</time>
      </trkpt>
      <trkpt lat="43.25152" lon="1.17481">
        <ele>238</ele>
        <time>2021-09-19T17:30:02.000Z</time>
      </trkpt>
      <trkpt lat="43.25173" lon="1.17499">
        <ele>237.80000305176</ele>
        <time>2021-09-19T17:30:09.000Z</time>
      </trkpt>
      <trkpt lat="43.25194" lon="1.17514">
        <ele>238.19999694824</ele>
        <time>2021-09-19T17:30:15.000Z</time>
      </trkpt>
      <trkpt lat="43.25212" lon="1.1753">
        <ele>237</ele>
        <time>2021-09-19T17:30:21.000Z</time>
      </trkpt>
      <trkpt lat="43.25231" lon="1.17543">
        <ele>236.39999389648</ele>
        <time>2021-09-19T17:30:27.000Z</time>
      </trkpt>
      <trkpt lat="43.25238" lon="1.17547">
        <ele>236.60000610352</ele>
        <time>2021-09-19T17:30:29.000Z</time>
      </trkpt>
      <trkpt lat="43.25254" lon="1.17558">
        <ele>236.39999389648</ele>
        <time>2021-09-19T17:30:34.000Z</time>
      </trkpt>
      <trkpt lat="43.25273" lon="1.17577">
        <ele>236.39999389648</ele>
        <time>2021-09-19T17:30:40.000Z</time>
      </trkpt>
      <trkpt lat="43.25286" lon="1.17599">
        <ele>235.80000305176</ele>
        <time>2021-09-19T17:30:46.000Z</time>
      </trkpt>
      <trkpt lat="43.25298" lon="1.17625">
        <ele>235.80000305176</ele>
        <time>2021-09-19T17:30:52.000Z</time>
      </trkpt>
      <trkpt lat="43.25311" lon="1.17649">
        <ele>235.19999694824</ele>
        <time>2021-09-19T17:30:58.000Z</time>
      </trkpt>
      <trkpt lat="43.25326" lon="1.17672">
        <ele>235</ele>
        <time>2021-09-19T17:31:04.000Z</time>
      </trkpt>
      <trkpt lat="43.25338" lon="1.17696">
        <ele>234.39999389648</ele>
        <time>2021-09-19T17:31:10.000Z</time>
      </trkpt>
      <trkpt lat="43.25353" lon="1.1772">
        <ele>234.39999389648</ele>
        <time>2021-09-19T17:31:16.000Z</time>
      </trkpt>
      <trkpt lat="43.25364" lon="1.17747">
        <ele>234.19999694824</ele>
        <time>2021-09-19T17:31:22.000Z</time>
      </trkpt>
      <trkpt lat="43.25381" lon="1.17771">
        <ele>233.39999389648</ele>
        <time>2021-09-19T17:31:28.000Z</time>
      </trkpt>
      <trkpt lat="43.25396" lon="1.17796">
        <ele>233.39999389648</ele>
        <time>2021-09-19T17:31:34.000Z</time>
      </trkpt>
      <trkpt lat="43.25409" lon="1.1782">
        <ele>232.80000305176</ele>
        <time>2021-09-19T17:31:40.000Z</time>
      </trkpt>
      <trkpt lat="43.25422" lon="1.17841">
        <ele>232.39999389648</ele>
        <time>2021-09-19T17:31:46.000Z</time>
      </trkpt>
      <trkpt lat="43.25436" lon="1.17864">
        <ele>232.19999694824</ele>
        <time>2021-09-19T17:31:52.000Z</time>
      </trkpt>
      <trkpt lat="43.25449" lon="1.17887">
        <ele>232.19999694824</ele>
        <time>2021-09-19T17:31:58.000Z</time>
      </trkpt>
      <trkpt lat="43.25462" lon="1.17908">
        <ele>231.80000305176</ele>
        <time>2021-09-19T17:32:04.000Z</time>
      </trkpt>
      <trkpt lat="43.25476" lon="1.17931">
        <ele>231.80000305176</ele>
        <time>2021-09-19T17:32:10.000Z</time>
      </trkpt>
      <trkpt lat="43.25489" lon="1.17954">
        <ele>231.19999694824</ele>
        <time>2021-09-19T17:32:16.000Z</time>
      </trkpt>
      <trkpt lat="43.255" lon="1.17977">
        <ele>231.19999694824</ele>
        <time>2021-09-19T17:32:22.000Z</time>
      </trkpt>
      <trkpt lat="43.25512" lon="1.18">
        <ele>230.60000610352</ele>
        <time>2021-09-19T17:32:28.000Z</time>
      </trkpt>
      <trkpt lat="43.25525" lon="1.18022">
        <ele>231</ele>
        <time>2021-09-19T17:32:34.000Z</time>
      </trkpt>
      <trkpt lat="43.2554" lon="1.18045">
        <ele>231</ele>
        <time>2021-09-19T17:32:40.000Z</time>
      </trkpt>
      <trkpt lat="43.25553" lon="1.18067">
        <ele>230.39999389648</ele>
        <time>2021-09-19T17:32:46.000Z</time>
      </trkpt>
      <trkpt lat="43.25566" lon="1.18089">
        <ele>230.19999694824</ele>
        <time>2021-09-19T17:32:52.000Z</time>
      </trkpt>
      <trkpt lat="43.25582" lon="1.18109">
        <ele>230</ele>
        <time>2021-09-19T17:32:58.000Z</time>
      </trkpt>
      <trkpt lat="43.25599" lon="1.18127">
        <ele>229.80000305176</ele>
        <time>2021-09-19T17:33:04.000Z</time>
      </trkpt>
      <trkpt lat="43.25618" lon="1.18141">
        <ele>229.39999389648</ele>
        <time>2021-09-19T17:33:10.000Z</time>
      </trkpt>
      <trkpt lat="43.25639" lon="1.18152">
        <ele>229.39999389648</ele>
        <time>2021-09-19T17:33:16.000Z</time>
      </trkpt>
      <trkpt lat="43.2566" lon="1.18163">
        <ele>228.80000305176</ele>
        <time>2021-09-19T17:33:22.000Z</time>
      </trkpt>
      <trkpt lat="43.25679" lon="1.18175">
        <ele>228.80000305176</ele>
        <time>2021-09-19T17:33:28.000Z</time>
      </trkpt>
      <trkpt lat="43.25697" lon="1.18191">
        <ele>228</ele>
        <time>2021-09-19T17:33:34.000Z</time>
      </trkpt>
      <trkpt lat="43.25706" lon="1.18215">
        <ele>227.60000610352</ele>
        <time>2021-09-19T17:33:40.000Z</time>
      </trkpt>
      <trkpt lat="43.25705" lon="1.18245">
        <ele>227.60000610352</ele>
        <time>2021-09-19T17:33:46.000Z</time>
      </trkpt>
      <trkpt lat="43.25706" lon="1.18274">
        <ele>227.39999389648</ele>
        <time>2021-09-19T17:33:52.000Z</time>
      </trkpt>
      <trkpt lat="43.25709" lon="1.18304">
        <ele>227.19999694824</ele>
        <time>2021-09-19T17:33:58.000Z</time>
      </trkpt>
      <trkpt lat="43.25709" lon="1.18333">
        <ele>226.80000305176</ele>
        <time>2021-09-19T17:34:04.000Z</time>
      </trkpt>
      <trkpt lat="43.25711" lon="1.18363">
        <ele>226.80000305176</ele>
        <time>2021-09-19T17:34:10.000Z</time>
      </trkpt>
      <trkpt lat="43.25712" lon="1.18392">
        <ele>226</ele>
        <time>2021-09-19T17:34:16.000Z</time>
      </trkpt>
      <trkpt lat="43.25714" lon="1.1842">
        <ele>226.19999694824</ele>
        <time>2021-09-19T17:34:22.000Z</time>
      </trkpt>
      <trkpt lat="43.2572" lon="1.18447">
        <ele>225.60000610352</ele>
        <time>2021-09-19T17:34:28.000Z</time>
      </trkpt>
      <trkpt lat="43.25729" lon="1.18473">
        <ele>225.60000610352</ele>
        <time>2021-09-19T17:34:34.000Z</time>
      </trkpt>
      <trkpt lat="43.25735" lon="1.18495">
        <ele>225.19999694824</ele>
        <time>2021-09-19T17:34:39.000Z</time>
      </trkpt>
      <trkpt lat="43.25736" lon="1.18504">
        <ele>225.19999694824</ele>
        <time>2021-09-19T17:34:41.000Z</time>
      </trkpt>
      <trkpt lat="43.25744" lon="1.18531">
        <ele>225.60000610352</ele>
        <time>2021-09-19T17:34:47.000Z</time>
      </trkpt>
      <trkpt lat="43.25749" lon="1.18559">
        <ele>225.39999389648</ele>
        <time>2021-09-19T17:34:53.000Z</time>
      </trkpt>
      <trkpt lat="43.25754" lon="1.18587">
        <ele>225.39999389648</ele>
        <time>2021-09-19T17:34:59.000Z</time>
      </trkpt>
      <trkpt lat="43.2576" lon="1.18618">
        <ele>225.19999694824</ele>
        <time>2021-09-19T17:35:06.000Z</time>
      </trkpt>
      <trkpt lat="43.25765" lon="1.18646">
        <ele>225</ele>
        <time>2021-09-19T17:35:12.000Z</time>
      </trkpt>
      <trkpt lat="43.25768" lon="1.18676">
        <ele>224.39999389648</ele>
        <time>2021-09-19T17:35:18.000Z</time>
      </trkpt>
      <trkpt lat="43.25772" lon="1.18704">
        <ele>224</ele>
        <time>2021-09-19T17:35:24.000Z</time>
      </trkpt>
      <trkpt lat="43.25775" lon="1.18732">
        <ele>223.60000610352</ele>
        <time>2021-09-19T17:35:30.000Z</time>
      </trkpt>
      <trkpt lat="43.25776" lon="1.18762">
        <ele>223.19999694824</ele>
        <time>2021-09-19T17:35:36.000Z</time>
      </trkpt>
      <trkpt lat="43.25777" lon="1.1879">
        <ele>222.80000305176</ele>
        <time>2021-09-19T17:35:42.000Z</time>
      </trkpt>
      <trkpt lat="43.25788" lon="1.18814">
        <ele>222.19999694824</ele>
        <time>2021-09-19T17:35:49.000Z</time>
      </trkpt>
      <trkpt lat="43.25809" lon="1.18822">
        <ele>221.80000305176</ele>
        <time>2021-09-19T17:35:55.000Z</time>
      </trkpt>
      <trkpt lat="43.25828" lon="1.18823">
        <ele>222</ele>
        <time>2021-09-19T17:36:01.000Z</time>
      </trkpt>
      <trkpt lat="43.25848" lon="1.18821">
        <ele>223.19999694824</ele>
        <time>2021-09-19T17:36:07.000Z</time>
      </trkpt>
      <trkpt lat="43.25869" lon="1.18823">
        <ele>223.19999694824</ele>
        <time>2021-09-19T17:36:13.000Z</time>
      </trkpt>
      <trkpt lat="43.25889" lon="1.18831">
        <ele>224</ele>
        <time>2021-09-19T17:36:19.000Z</time>
      </trkpt>
      <trkpt lat="43.25909" lon="1.18842">
        <ele>223.39999389648</ele>
        <time>2021-09-19T17:36:25.000Z</time>
      </trkpt>
      <trkpt lat="43.2593" lon="1.18854">
        <ele>223.19999694824</ele>
        <time>2021-09-19T17:36:31.000Z</time>
      </trkpt>
      <trkpt lat="43.25947" lon="1.18867">
        <ele>222.80000305176</ele>
        <time>2021-09-19T17:36:37.000Z</time>
      </trkpt>
      <trkpt lat="43.25964" lon="1.18855">
        <ele>223.39999389648</ele>
        <time>2021-09-19T17:36:44.000Z</time>
      </trkpt>
      <trkpt lat="43.25971" lon="1.18829">
        <ele>223.39999389648</ele>
        <time>2021-09-19T17:36:51.000Z</time>
      </trkpt>
      <trkpt lat="43.25979" lon="1.18803">
        <ele>224</ele>
        <time>2021-09-19T17:36:58.000Z</time>
      </trkpt>
      <trkpt lat="43.25978" lon="1.18801">
        <ele>223.80000305176</ele>
        <time>2021-09-19T17:36:59.000Z</time>
      </trkpt>
      <trkpt lat="43.25977" lon="1.18797">
        <ele>224</ele>
        <time>2021-09-19T17:37:00.000Z</time>
      </trkpt>
      <trkpt lat="43.25965" lon="1.18771">
        <ele>223.39999389648</ele>
        <time>2021-09-19T17:37:07.000Z</time>
      </trkpt>
      <trkpt lat="43.25947" lon="1.18754">
        <ele>223.60000610352</ele>
        <time>2021-09-19T17:37:13.000Z</time>
      </trkpt>
      <trkpt lat="43.25929" lon="1.1875">
        <ele>223.80000305176</ele>
        <time>2021-09-19T17:37:20.000Z</time>
      </trkpt>
      <trkpt lat="43.25927" lon="1.18753">
        <ele>223.80000305176</ele>
        <time>2021-09-19T17:37:21.000Z</time>
      </trkpt>
      <trkpt lat="43.25925" lon="1.18757">
        <ele>223.80000305176</ele>
        <time>2021-09-19T17:37:22.000Z</time>
      </trkpt>
      <trkpt lat="43.25924" lon="1.18761">
        <ele>224</ele>
        <time>2021-09-19T17:37:23.000Z</time>
      </trkpt>
      <trkpt lat="43.25923" lon="1.18765">
        <ele>224</ele>
        <time>2021-09-19T17:37:24.000Z</time>
      </trkpt>
      <trkpt lat="43.25923" lon="1.1877">
        <ele>224</ele>
        <time>2021-09-19T17:37:25.000Z</time>
      </trkpt>
      <trkpt lat="43.25922" lon="1.18774">
        <ele>224</ele>
        <time>2021-09-19T17:37:26.000Z</time>
      </trkpt>
      <trkpt lat="43.25918" lon="1.18801">
        <ele>224.19999694824</ele>
        <time>2021-09-19T17:37:32.000Z</time>
      </trkpt>
      <trkpt lat="43.25915" lon="1.18814">
        <ele>224</ele>
        <time>2021-09-19T17:37:37.000Z</time>
      </trkpt>
    </trkseg>
  </trk>
</gpx>